Observation data for Fort Lewis CO on 05/24/2020      Previous  Date  Next       Current Mesonet Observations  Soil Data  Daily Summary Page  Observations in Plain Language
KFL1 240500Z 32003KT 07/M02 A3002 RMK A01 T00681022  RH  053%=      5-min Rain = 0
KFL1 240501Z 33003KT 07/M02 A3002 RMK A01 T00681019  RH  054%=      5-min Rain = 0
KFL1 240502Z 32003KT 07/M02 A3002 RMK A01 T00681016  RH  055%=      5-min Rain = 0
KFL1 240503Z 31003KT 07/M02 A3002 RMK A01 T00681015  RH  056%=      5-min Rain = 0
KFL1 240504Z 30003KT 07/M02 A3001 RMK A01 T00661019  RH  054%=      5-min Rain = 0
KFL1 240505Z 30002KT 07/M03 A3001 RMK A01 T00681025  RH  051%=      5-min Rain = 0
KFL1 240506Z 30002KT 07/M03 A3001 RMK A01 T00701029  RH  050%=      5-min Rain = 0
KFL1 240507Z 32002KT 07/M02 A3001 RMK A01 T00721024  RH  051%=      5-min Rain = 0
KFL1 240508Z 31003KT 07/M02 A3001 RMK A01 T00721020  RH  052%=      5-min Rain = 0
KFL1 240509Z 31002KT 07/M02 A3001 RMK A01 T00711018  RH  053%=      5-min Rain = 0
KFL1 240510Z 34003KT 07/M01 A3001 RMK A01 T00711012  RH  056%=      5-min Rain = 0
KFL1 240511Z 33003KT 07/M01 A3001 RMK A01 T00691013  RH  056%=      5-min Rain = 0
KFL1 240512Z 31003KT 07/M02 A3001 RMK A01 T00681015  RH  055%=      5-min Rain = 0
KFL1 240513Z 30003KT 07/M02 A3001 RMK A01 T00681016  RH  055%=      5-min Rain = 0
KFL1 240514Z 30003KT 07/M02 A3001 RMK A01 T00681016  RH  055%=      5-min Rain = 0
KFL1 240515Z 29003KT 07/M02 A3001 RMK A01 T00671015  RH  056%=      5-min Rain = 0
KFL1 240516Z 29003KT 07/M01 A3001 RMK A01 T00681010  RH  058%=      5-min Rain = 0
KFL1 240517Z 30003KT 07/M01 A3001 RMK A01 T00661007  RH  060%=      5-min Rain = 0
KFL1 240518Z 30003KT 06/M01 A3001 RMK A01 T00641006  RH  061%=      5-min Rain = 0
KFL1 240519Z 30003KT 06/M01 A3001 RMK A01 T00631007  RH  061%=      5-min Rain = 0
KFL1 240520Z 31003KT 06/M01 A3001 RMK A01 T00621007  RH  061%=      5-min Rain = 0
KFL1 240521Z 31004KT 06/M01 A3001 RMK A01 T00621007  RH  062%=      5-min Rain = 0
KFL1 240522Z 30003KT 06/M01 A3001 RMK A01 T00601006  RH  063%=      5-min Rain = 0
KFL1 240523Z 29003KT 06/M00 A3001 RMK A01 T00601003  RH  064%=      5-min Rain = 0
KFL1 240524Z 29004KT 06/M00 A3001 RMK A01 T00591003  RH  064%=      5-min Rain = 0
KFL1 240525Z 30004KT 06/M00 A3001 RMK A01 T00601001  RH  065%=      5-min Rain = 0
KFL1 240526Z 30004KT 06/00 A3001 RMK A01 T005900-0  RH  066%=      5-min Rain = 0
KFL1 240527Z 31005KT 06/M01 A3001 RMK A01 T00591007  RH  062%=      5-min Rain = 0
KFL1 240528Z 30005KT 06/M02 A3001 RMK A01 T00611016  RH  058%=      5-min Rain = 0
KFL1 240529Z 30005KT 07/M02 A3001 RMK A01 T00661022  RH  053%=      5-min Rain = 0
KFL1 240530Z 29005KT 07/M03 A3001 RMK A01 T00671029  RH  050%=      5-min Rain = 0
KFL1 240531Z 30005KT 07/M03 A3001 RMK A01 T00711033  RH  048%=      5-min Rain = 0
KFL1 240532Z 30005KT 07/M03 A3001 RMK A01 T00741033  RH  047%=      5-min Rain = 0
KFL1 240533Z 30006KT 08/M04 A3001 RMK A01 T00761036  RH  045%=      5-min Rain = 0
KFL1 240534Z 30006KT 08/M03 A3001 RMK A01 T00791034  RH  045%=      5-min Rain = 0
KFL1 240535Z 30006KT 08/M03 A3001 RMK A01 T00801033  RH  045%=      5-min Rain = 0
KFL1 240536Z 29006KT 08/M04 A3001 RMK A01 T00821037  RH  043%=      5-min Rain = 0
KFL1 240537Z 29006KT 09/M05 A3001 RMK A01 T00861045  RH  039%=      5-min Rain = 0
KFL1 240538Z 30006KT 09/M05 A3001 RMK A01 T00911049  RH  037%=      5-min Rain = 0
KFL1 240539Z 30006KT 09/M05 A3001 RMK A01 T00941047  RH  037%=      5-min Rain = 0
KFL1 240540Z 30006KT 09/M05 A3001 RMK A01 T00931046  RH  037%=      5-min Rain = 0
KFL1 240541Z 31005KT 09/M04 A3001 RMK A01 T00931044  RH  038%=      5-min Rain = 0
KFL1 240542Z 31006KT 09/M04 A3001 RMK A01 T00931044  RH  038%=      5-min Rain = 0
KFL1 240543Z 31006KT 09/M04 A3001 RMK A01 T00921044  RH  038%=      5-min Rain = 0
KFL1 240544Z 31006KT 09/M04 A3001 RMK A01 T00911042  RH  039%=      5-min Rain = 0
KFL1 240545Z 31006KT 09/M04 A3001 RMK A01 T00911044  RH  038%=      5-min Rain = 0
KFL1 240546Z 32006KT 09/M05 A3001 RMK A01 T00911047  RH  037%=      5-min Rain = 0
KFL1 240547Z 32006KT 09/M05 A3001 RMK A01 T00911049  RH  037%=      5-min Rain = 0
KFL1 240548Z 32006KT 09/M05 A3001 RMK A01 T00931046  RH  037%=      5-min Rain = 0
KFL1 240549Z 31007KT 09/M05 A3001 RMK A01 T00931047  RH  037%=      5-min Rain = 0
KFL1 240550Z 31007KT 10/M05 A3001 RMK A01 T00951048  RH  036%=      5-min Rain = 0
KFL1 240551Z 31007KT 10/M05 A3001 RMK A01 T00951050  RH  036%=      5-min Rain = 0
KFL1 240552Z 31007KT 10/M05 A3001 RMK A01 T00961051  RH  035%=      5-min Rain = 0
KFL1 240553Z 30006KT 10/M05 A3001 RMK A01 T00961054  RH  034%=      5-min Rain = 0
KFL1 240554Z 31006KT 10/M05 A3001 RMK A01 T00981054  RH  034%=      5-min Rain = 0
KFL1 240555Z 31006KT 10/M05 A3001 RMK A01 T01001052  RH  034%=      5-min Rain = 0
KFL1 240556Z 31006KT 10/M05 A3001 RMK A01 T00991049  RH  035%=      5-min Rain = 0
KFL1 240557Z 32006KT 10/M05 A3001 RMK A01 T00971050  RH  035%=      5-min Rain = 0
KFL1 240558Z 32006KT 10/M05 A3001 RMK A01 T00951051  RH  035%=      5-min Rain = 0
KFL1 240559Z 32005KT 10/M05 A3001 RMK A01 T00951051  RH  035%=      5-min Rain = 0
KFL1 240600Z 33005KT 09/M04 A3001 RMK A01 T00931037  RH  040%=      5-min Rain = 0
KFL1 240601Z 33005KT 09/M04 A3001 RMK A01 T00861035  RH  042%=      5-min Rain = 0
KFL1 240602Z 33005KT 09/M04 A3001 RMK A01 T00871037  RH  042%=      5-min Rain = 0
KFL1 240603Z 33005KT 08/M04 A3001 RMK A01 T00841040  RH  041%=      5-min Rain = 0
KFL1 240604Z 33005KT 08/M04 A3001 RMK A01 T00821039  RH  042%=      5-min Rain = 0
KFL1 240605Z 33005KT 08/M04 A3001 RMK A01 T00801038  RH  043%=      5-min Rain = 0
KFL1 240606Z 33004KT 08/M04 A3001 RMK A01 T00781037  RH  044%=      5-min Rain = 0
KFL1 240607Z 33004KT 08/M04 A3001 RMK A01 T00781035  RH  045%=      5-min Rain = 0
KFL1 240608Z 33004KT 08/M03 A3001 RMK A01 T00751027  RH  048%=      5-min Rain = 0
KFL1 240609Z 33005KT 07/M02 A3001 RMK A01 T00691021  RH  053%=      5-min Rain = 0
KFL1 240610Z 34006KT 06/M02 A3001 RMK A01 T00621021  RH  055%=      5-min Rain = 0
KFL1 240611Z 33006KT 06/M02 A3001 RMK A01 T00591017  RH  058%=      5-min Rain = 0
KFL1 240612Z 33006KT 05/M02 A3001 RMK A01 T00541016  RH  060%=      5-min Rain = 0
KFL1 240613Z 33006KT 05/M01 A3001 RMK A01 T00541012  RH  063%=      5-min Rain = 0
KFL1 240614Z 33006KT 05/M01 A3001 RMK A01 T00531013  RH  062%=      5-min Rain = 0
KFL1 240615Z 33006KT 05/M02 A3001 RMK A01 T00531021  RH  059%=      5-min Rain = 0
KFL1 240616Z 33006KT 06/M02 A3001 RMK A01 T00551020  RH  059%=      5-min Rain = 0
KFL1 240617Z 33006KT 05/M03 A3001 RMK A01 T00541026  RH  056%=      5-min Rain = 0
KFL1 240618Z 33007KT 06/M03 A3001 RMK A01 T00571030  RH  054%=      5-min Rain = 0
KFL1 240619Z 33007KT 06/M03 A3001 RMK A01 T00591026  RH  054%=      5-min Rain = 0
KFL1 240620Z 33006KT 06/M03 A3001 RMK A01 T00591030  RH  053%=      5-min Rain = 0
KFL1 240621Z 34006KT 06/M03 A3001 RMK A01 T00601031  RH  052%=      5-min Rain = 0
KFL1 240622Z 33007KT 06/M02 A3001 RMK A01 T00611024  RH  054%=      5-min Rain = 0
KFL1 240623Z 34006KT 06/M02 A3001 RMK A01 T00591022  RH  056%=      5-min Rain = 0
KFL1 240624Z 33006KT 06/M02 A3001 RMK A01 T00581021  RH  057%=      5-min Rain = 0
KFL1 240625Z 33006KT 06/M02 A3001 RMK A01 T00571020  RH  058%=      5-min Rain = 0
KFL1 240626Z 33006KT 06/M02 A3001 RMK A01 T00551015  RH  060%=      5-min Rain = 0
KFL1 240627Z 33006KT 05/M02 A3001 RMK A01 T00521015  RH  062%=      5-min Rain = 0
KFL1 240628Z 33006KT 05/M02 A3001 RMK A01 T00481016  RH  063%=      5-min Rain = 0
KFL1 240629Z 33006KT 05/M02 A3001 RMK A01 T00481018  RH  062%=      5-min Rain = 0
KFL1 240630Z 33006KT 05/M02 A3001 RMK A01 T00471021  RH  061%=      5-min Rain = 0
KFL1 240631Z 33006KT 05/M03 A3001 RMK A01 T00491027  RH  058%=      5-min Rain = 0
KFL1 240632Z 33006KT 05/M03 A3001 RMK A01 T00531025  RH  057%=      5-min Rain = 0
KFL1 240633Z 34006KT 05/M02 A3001 RMK A01 T00521024  RH  058%=      5-min Rain = 0
KFL1 240634Z 34006KT 05/M02 A3001 RMK A01 T00491023  RH  060%=      5-min Rain = 0
KFL1 240635Z 34006KT 05/M02 A3001 RMK A01 T00461024  RH  061%=      5-min Rain = 0
KFL1 240636Z 34005KT 05/M03 A3001 RMK A01 T00461026  RH  059%=      5-min Rain = 0
KFL1 240637Z 33005KT 05/M02 A3001 RMK A01 T00481022  RH  061%=      5-min Rain = 0
KFL1 240638Z 33004KT 05/M02 A3001 RMK A01 T00471024  RH  060%=      5-min Rain = 0
KFL1 240639Z 33004KT 05/M03 A3001 RMK A01 T00491025  RH  059%=      5-min Rain = 0
KFL1 240640Z 33004KT 05/M02 A3001 RMK A01 T00501020  RH  061%=      5-min Rain = 0
KFL1 240641Z 32004KT 05/M02 A3001 RMK A01 T00481024  RH  060%=      5-min Rain = 0
KFL1 240642Z 33003KT 05/M03 A3001 RMK A01 T00491029  RH  057%=      5-min Rain = 0
KFL1 240643Z 33003KT 05/M03 A3001 RMK A01 T00521032  RH  055%=      5-min Rain = 0
KFL1 240644Z 34004KT 06/M03 A3001 RMK A01 T00561033  RH  053%=      5-min Rain = 0
KFL1 240645Z 34003KT 06/M04 A3001 RMK A01 T00571036  RH  051%=      5-min Rain = 0
KFL1 240646Z 34003KT 06/M04 A3001 RMK A01 T00581037  RH  051%=      5-min Rain = 0
KFL1 240647Z 33003KT 06/M03 A3001 RMK A01 T00591033  RH  051%=      5-min Rain = 0
KFL1 240648Z 32003KT 06/M03 A3001 RMK A01 T00571030  RH  054%=      5-min Rain = 0
KFL1 240649Z 32002KT 05/M03 A3001 RMK A01 T00521030  RH  056%=      5-min Rain = 0
KFL1 240650Z 28002KT 05/M04 A3001 RMK A01 T00491035  RH  054%=      5-min Rain = 0
KFL1 240651Z 27002KT 05/M03 A3001 RMK A01 T00511034  RH  054%=      5-min Rain = 0
KFL1 240652Z 29002KT 05/M03 A3001 RMK A01 T00531032  RH  054%=      5-min Rain = 0
KFL1 240653Z 31003KT 05/M04 A3001 RMK A01 T00541035  RH  053%=      5-min Rain = 0
KFL1 240654Z 32003KT 06/M04 A3001 RMK A01 T00571038  RH  050%=      5-min Rain = 0
KFL1 240655Z 33005KT 06/M04 A3001 RMK A01 T00591042  RH  048%=      5-min Rain = 0
KFL1 240656Z 33006KT 06/M05 A30 RMK A01 T00641045  RH  046%=      5-min Rain = 0
KFL1 240657Z 33007KT 07/M04 A30 RMK A01 T00651036  RH  049%=      5-min Rain = 0
KFL1 240658Z 33007KT 06/M03 A30 RMK A01 T00591028  RH  054%=      5-min Rain = 0
KFL1 240659Z 33007KT 05/M03 A30 RMK A01 T00501029  RH  057%=      5-min Rain = 0
KFL1 240700Z 33006KT 05/M03 A30 RMK A01 T00461032  RH  057%=      5-min Rain = 0
KFL1 240701Z 33006KT 04/M04 A30 RMK A01 T00441035  RH  057%=      5-min Rain = 0
KFL1 240702Z 33006KT 05/M03 A30 RMK A01 T00451033  RH  057%=      5-min Rain = 0
KFL1 240703Z 33006KT 05/M04 A30 RMK A01 T00451038  RH  055%=      5-min Rain = 0
KFL1 240704Z 33006KT 05/M03 A30 RMK A01 T00471034  RH  056%=      5-min Rain = 0
KFL1 240705Z 33007KT 05/M03 A30 RMK A01 T00451027  RH  059%=      5-min Rain = 0
KFL1 240706Z 33007KT 04/M03 A30 RMK A01 T00391027  RH  062%=      5-min Rain = 0
KFL1 240707Z 33007KT 04/M02 A30 RMK A01 T00391023  RH  064%=      5-min Rain = 0
KFL1 240708Z 33007KT 04/M02 A30 RMK A01 T00371021  RH  066%=      5-min Rain = 0
KFL1 240709Z 33007KT 03/M02 A30 RMK A01 T00341021  RH  067%=      5-min Rain = 0
KFL1 240710Z 33007KT 03/M02 A30 RMK A01 T00331023  RH  067%=      5-min Rain = 0
KFL1 240711Z 32007KT 04/M03 A30 RMK A01 T00361030  RH  062%=      5-min Rain = 0
KFL1 240712Z 32007KT 05/M03 A30 RMK A01 T00461034  RH  056%=      5-min Rain = 0
KFL1 240713Z 32006KT 05/M03 A30 RMK A01 T00511034  RH  054%=      5-min Rain = 0
KFL1 240714Z 33006KT 05/M03 A30 RMK A01 T00511028  RH  057%=      5-min Rain = 0
KFL1 240715Z 34006KT 05/M03 A30 RMK A01 T00471031  RH  057%=      5-min Rain = 0
KFL1 240716Z 34006KT 05/M03 A30 RMK A01 T00481033  RH  056%=      5-min Rain = 0
KFL1 240717Z 34006KT 05/M03 A30 RMK A01 T00451029  RH  059%=      5-min Rain = 0
KFL1 240718Z 33007KT 04/M03 A30 RMK A01 T00381030  RH  061%=      5-min Rain = 0
KFL1 240719Z 34007KT 04/M03 A30 RMK A01 T00371030  RH  061%=      5-min Rain = 0
KFL1 240720Z 34008KT 04/M03 A30 RMK A01 T00381032  RH  060%=      5-min Rain = 0
KFL1 240721Z 33008KT 04/M03 A30 RMK A01 T00381033  RH  060%=      5-min Rain = 0
KFL1 240722Z 33008KT 04/M03 A30 RMK A01 T00391032  RH  060%=      5-min Rain = 0
KFL1 240723Z 32007KT 04/M03 A30 RMK A01 T00431032  RH  058%=      5-min Rain = 0
KFL1 240724Z 32007KT 05/M04 A30 RMK A01 T00461037  RH  055%=      5-min Rain = 0
KFL1 240725Z 32007KT 05/M04 A30 RMK A01 T00501041  RH  052%=      5-min Rain = 0
KFL1 240726Z 32006KT 06/M04 A30 RMK A01 T00561041  RH  049%=      5-min Rain = 0
KFL1 240727Z 33006KT 06/M04 A30 RMK A01 T00591042  RH  049%=      5-min Rain = 0
KFL1 240728Z 33006KT 06/M04 A30 RMK A01 T00601041  RH  048%=      5-min Rain = 0
KFL1 240729Z 33006KT 06/M04 A30 RMK A01 T00601038  RH  049%=      5-min Rain = 0
KFL1 240730Z 33007KT 06/M04 A30 RMK A01 T00591038  RH  049%=      5-min Rain = 0
KFL1 240731Z 32006KT 06/M04 A30 RMK A01 T00581040  RH  050%=      5-min Rain = 0
KFL1 240732Z 32005KT 06/M04 A30 RMK A01 T00571041  RH  049%=      5-min Rain = 0
KFL1 240733Z 32006KT 06/M05 A30 RMK A01 T00581045  RH  048%=      5-min Rain = 0
KFL1 240734Z 33006KT 06/M05 A30 RMK A01 T00611047  RH  046%=      5-min Rain = 0
KFL1 240735Z 32007KT 06/M05 A30 RMK A01 T00641048  RH  044%=      5-min Rain = 0
KFL1 240736Z 33006KT 07/M04 A30 RMK A01 T00681044  RH  045%=      5-min Rain = 0
KFL1 240737Z 33006KT 07/M04 A30 RMK A01 T00651039  RH  048%=      5-min Rain = 0
KFL1 240738Z 33006KT 06/M03 A30 RMK A01 T00611031  RH  051%=      5-min Rain = 0
KFL1 240739Z 33005KT 05/M03 A30 RMK A01 T00531031  RH  055%=      5-min Rain = 0
KFL1 240740Z 33004KT 05/M03 A30 RMK A01 T00491033  RH  055%=      5-min Rain = 0
KFL1 240741Z 33004KT 05/M03 A30 RMK A01 T00471032  RH  056%=      5-min Rain = 0
KFL1 240742Z 33004KT 05/M03 A30 RMK A01 T00461032  RH  057%=      5-min Rain = 0
KFL1 240743Z 33004KT 05/M03 A30 RMK A01 T00461029  RH  058%=      5-min Rain = 0
KFL1 240744Z 33004KT 05/M03 A30 RMK A01 T00451029  RH  059%=      5-min Rain = 0
KFL1 240745Z 33004KT 05/M03 A30 RMK A01 T00451028  RH  059%=      5-min Rain = 0
KFL1 240746Z 34003KT 04/M02 A30 RMK A01 T00411023  RH  063%=      5-min Rain = 0
KFL1 240747Z 34003KT 04/M03 A30 RMK A01 T00351027  RH  064%=      5-min Rain = 0
KFL1 240748Z 34004KT 03/M03 A30 RMK A01 T00321028  RH  065%=      5-min Rain = 0
KFL1 240749Z 34005KT 03/M03 A30 RMK A01 T00301030  RH  064%=      5-min Rain = 0
KFL1 240750Z 34006KT 03/M03 A30 RMK A01 T00301029  RH  065%=      5-min Rain = 0
KFL1 240751Z 33007KT 03/M03 A30 RMK A01 T00281026  RH  068%=      5-min Rain = 0
KFL1 240752Z 33007KT 03/M03 A30 RMK A01 T00261025  RH  069%=      5-min Rain = 0
KFL1 240753Z 33007KT 03/M03 A30 RMK A01 T00281028  RH  067%=      5-min Rain = 0
KFL1 240754Z 33008KT 04/M03 A30 RMK A01 T00361034  RH  060%=      5-min Rain = 0
KFL1 240755Z 32007KT 05/M04 A30 RMK A01 T00451037  RH  055%=      5-min Rain = 0
KFL1 240756Z 32007KT 05/M04 A30 RMK A01 T00531040  RH  051%=      5-min Rain = 0
KFL1 240757Z 33006KT 06/M04 A30 RMK A01 T00611041  RH  048%=      5-min Rain = 0
KFL1 240758Z 33005KT 07/M04 A30 RMK A01 T00651042  RH  046%=      5-min Rain = 0
KFL1 240759Z 33006KT 07/M04 A30 RMK A01 T00671043  RH  045%=      5-min Rain = 0
KFL1 240800Z 33006KT 07/M04 A30 RMK A01 T00691044  RH  044%=      5-min Rain = 0
KFL1 240801Z 33006KT 07/M04 A30 RMK A01 T00701044  RH  044%=      5-min Rain = 0
KFL1 240802Z 33007KT 07/M04 A30 RMK A01 T00691042  RH  045%=      5-min Rain = 0
KFL1 240803Z 32007KT 07/M04 A30 RMK A01 T00671044  RH  045%=      5-min Rain = 0
KFL1 240804Z 32007KT 07/M05 A30 RMK A01 T00671045  RH  045%=      5-min Rain = 0
KFL1 240805Z 31007KT 07/M05 A30 RMK A01 T00691045  RH  044%=      5-min Rain = 0
KFL1 240806Z 32006KT 07/M05 A30 RMK A01 T00711046  RH  043%=      5-min Rain = 0
KFL1 240807Z 32006KT 07/M05 A2999 RMK A01 T00731046  RH  043%=      5-min Rain = 0
KFL1 240808Z 32007KT 07/M05 A2999 RMK A01 T00741046  RH  042%=      5-min Rain = 0
KFL1 240809Z 32006KT 07/M05 A2999 RMK A01 T00741047  RH  042%=      5-min Rain = 0
KFL1 240810Z 32006KT 08/M05 A30 RMK A01 T00751046  RH  042%=      5-min Rain = 0
KFL1 240811Z 32006KT 08/M05 A30 RMK A01 T00751046  RH  042%=      5-min Rain = 0
KFL1 240812Z 32008KT 08/M05 A30 RMK A01 T00761045  RH  042%=      5-min Rain = 0
KFL1 240813Z 31007KT 07/M05 A30 RMK A01 T00741046  RH  042%=      5-min Rain = 0
KFL1 240814Z 31007KT 07/M05 A30 RMK A01 T00741046  RH  042%=      5-min Rain = 0
KFL1 240815Z 31006KT 07/M05 A30 RMK A01 T00741047  RH  042%=      5-min Rain = 0
KFL1 240816Z 31006KT 08/M05 A30 RMK A01 T00761047  RH  041%=      5-min Rain = 0
KFL1 240817Z 31006KT 08/M05 A30 RMK A01 T00771047  RH  041%=      5-min Rain = 0
KFL1 240818Z 30006KT 08/M05 A30 RMK A01 T00791045  RH  041%=      5-min Rain = 0
KFL1 240819Z 30006KT 08/M05 A30 RMK A01 T00781046  RH  041%=      5-min Rain = 0
KFL1 240820Z 30006KT 08/M05 A30 RMK A01 T00791045  RH  041%=      5-min Rain = 0
KFL1 240821Z 30006KT 08/M05 A30 RMK A01 T00781046  RH  041%=      5-min Rain = 0
KFL1 240822Z 30005KT 08/M05 A30 RMK A01 T00771047  RH  041%=      5-min Rain = 0
KFL1 240823Z 30005KT 08/M05 A30 RMK A01 T00771047  RH  041%=      5-min Rain = 0
KFL1 240824Z 30005KT 08/M05 A30 RMK A01 T00781046  RH  041%=      5-min Rain = 0
KFL1 240825Z 30005KT 08/M05 A30 RMK A01 T00771046  RH  041%=      5-min Rain = 0
KFL1 240826Z 30005KT 08/M05 A30 RMK A01 T00761047  RH  041%=      5-min Rain = 0
KFL1 240827Z 31005KT 08/M05 A30 RMK A01 T00761047  RH  041%=      5-min Rain = 0
KFL1 240828Z 31005KT 08/M05 A30 RMK A01 T00771047  RH  041%=      5-min Rain = 0
KFL1 240829Z 31005KT 08/M05 A30 RMK A01 T00781046  RH  041%=      5-min Rain = 0
KFL1 240830Z 31006KT 08/M05 A30 RMK A01 T00791046  RH  041%=      5-min Rain = 0
KFL1 240831Z 31005KT 08/M05 A30 RMK A01 T00801046  RH  041%=      5-min Rain = 0
KFL1 240832Z 31005KT 08/M04 A30 RMK A01 T00831044  RH  040%=      5-min Rain = 0
KFL1 240833Z 31005KT 08/M04 A30 RMK A01 T00841044  RH  040%=      5-min Rain = 0
KFL1 240834Z 32005KT 08/M05 A30 RMK A01 T00831046  RH  040%=      5-min Rain = 0
KFL1 240835Z 31004KT 08/M05 A30 RMK A01 T00821047  RH  040%=      5-min Rain = 0
KFL1 240836Z 32004KT 08/M05 A30 RMK A01 T00821046  RH  040%=      5-min Rain = 0
KFL1 240837Z 32004KT 08/M05 A30 RMK A01 T00811046  RH  040%=      5-min Rain = 0
KFL1 240838Z 32005KT 08/M05 A30 RMK A01 T00811045  RH  040%=      5-min Rain = 0
KFL1 240839Z 31005KT 08/M05 A30 RMK A01 T00801046  RH  041%=      5-min Rain = 0
KFL1 240840Z 31005KT 08/M05 A30 RMK A01 T00781046  RH  041%=      5-min Rain = 0
KFL1 240841Z 32005KT 08/M04 A30 RMK A01 T00781044  RH  042%=      5-min Rain = 0
KFL1 240842Z 32006KT 08/M05 A30 RMK A01 T00761045  RH  042%=      5-min Rain = 0
KFL1 240843Z 32006KT 08/M04 A30 RMK A01 T00781043  RH  042%=      5-min Rain = 0
KFL1 240844Z 32006KT 08/M04 A30 RMK A01 T00771044  RH  042%=      5-min Rain = 0
KFL1 240845Z 32006KT 08/M05 A30 RMK A01 T00761045  RH  042%=      5-min Rain = 0
KFL1 240846Z 32007KT 08/M05 A30 RMK A01 T00771045  RH  042%=      5-min Rain = 0
KFL1 240847Z 32006KT 08/M05 A30 RMK A01 T00781045  RH  042%=      5-min Rain = 0
KFL1 240848Z 32006KT 08/M04 A30 RMK A01 T00781044  RH  041%=      5-min Rain = 0
KFL1 240849Z 32007KT 08/M04 A30 RMK A01 T00791044  RH  041%=      5-min Rain = 0
KFL1 240850Z 32006KT 08/M04 A30 RMK A01 T00801044  RH  041%=      5-min Rain = 0
KFL1 240851Z 32006KT 08/M04 A30 RMK A01 T00801044  RH  041%=      5-min Rain = 0
KFL1 240852Z 32007KT 08/M05 A30 RMK A01 T00801045  RH  041%=      5-min Rain = 0
KFL1 240853Z 33007KT 08/M04 A30 RMK A01 T00811044  RH  041%=      5-min Rain = 0
KFL1 240854Z 33008KT 08/M04 A3001 RMK A01 T00801044  RH  041%=      5-min Rain = 0
KFL1 240855Z 32007KT 08/M05 A30 RMK A01 T00791045  RH  041%=      5-min Rain = 0
KFL1 240856Z 32007KT 08/M04 A30 RMK A01 T00801044  RH  041%=      5-min Rain = 0
KFL1 240857Z 32007KT 08/M04 A30 RMK A01 T00791044  RH  041%=      5-min Rain = 0
KFL1 240858Z 32008KT 08/M04 A30 RMK A01 T00811043  RH  041%=      5-min Rain = 0
KFL1 240859Z 32008KT 08/M04 A30 RMK A01 T00811044  RH  041%=      5-min Rain = 0
KFL1 240900Z 32008KT 08/M04 A30 RMK A01 T00821044  RH  041%=      5-min Rain = 0
KFL1 240901Z 32008KT 08/M04 A30 RMK A01 T00821044  RH  041%=      5-min Rain = 0
KFL1 240902Z 32008KT 08/M04 A30 RMK A01 T00831044  RH  040%=      5-min Rain = 0
KFL1 240903Z 32007KT 08/M04 A30 RMK A01 T00831043  RH  041%=      5-min Rain = 0
KFL1 240904Z 32008KT 08/M04 A30 RMK A01 T00821044  RH  040%=      5-min Rain = 0
KFL1 240905Z 32007KT 08/M04 A30 RMK A01 T00831043  RH  041%=      5-min Rain = 0
KFL1 240906Z 32008KT 08/M04 A30 RMK A01 T00821044  RH  041%=      5-min Rain = 0
KFL1 240907Z 32008KT 08/M04 A30 RMK A01 T00811044  RH  041%=      5-min Rain = 0
KFL1 240908Z 31007KT 08/M04 A30 RMK A01 T00831043  RH  041%=      5-min Rain = 0
KFL1 240909Z 31007KT 08/M04 A30 RMK A01 T00841044  RH  040%=      5-min Rain = 0
KFL1 240910Z 32006KT 08/M04 A3001 RMK A01 T00841044  RH  040%=      5-min Rain = 0
KFL1 240911Z 33006KT 08/M04 A3001 RMK A01 T00831043  RH  041%=      5-min Rain = 0
KFL1 240912Z 32006KT 08/M05 A3001 RMK A01 T00801045  RH  041%=      5-min Rain = 0
KFL1 240913Z 32006KT 08/M04 A3001 RMK A01 T00811043  RH  041%=      5-min Rain = 0
KFL1 240914Z 33006KT 08/M05 A3001 RMK A01 T00811045  RH  041%=      5-min Rain = 0
KFL1 240915Z 33006KT 08/M04 A30 RMK A01 T00811044  RH  041%=      5-min Rain = 0
KFL1 240916Z 34006KT 08/M05 A30 RMK A01 T00781045  RH  042%=      5-min Rain = 0
KFL1 240917Z 34006KT 07/M04 A3001 RMK A01 T00731043  RH  043%=      5-min Rain = 0
KFL1 240918Z 34007KT 07/M04 A3001 RMK A01 T00691037  RH  047%=      5-min Rain = 0
KFL1 240919Z 34007KT 06/M03 A3001 RMK A01 T00631034  RH  050%=      5-min Rain = 0
KFL1 240920Z 34007KT 06/M03 A3001 RMK A01 T00591033  RH  052%=      5-min Rain = 0
KFL1 240921Z 34006KT 06/M03 A3001 RMK A01 T00551029  RH  054%=      5-min Rain = 0
KFL1 240922Z 34006KT 05/M03 A3001 RMK A01 T00521029  RH  056%=      5-min Rain = 0
KFL1 240923Z 34006KT 05/M03 A3001 RMK A01 T00481029  RH  058%=      5-min Rain = 0
KFL1 240924Z 34006KT 05/M03 A3001 RMK A01 T00461026  RH  060%=      5-min Rain = 0
KFL1 240925Z 34006KT 05/M02 A3001 RMK A01 T00461021  RH  062%=      5-min Rain = 0
KFL1 240926Z 34006KT 04/M03 A3001 RMK A01 T00441027  RH  060%=      5-min Rain = 0
KFL1 240927Z 34007KT 05/M03 A3001 RMK A01 T00451027  RH  060%=      5-min Rain = 0
KFL1 240928Z 34006KT 05/M03 A3001 RMK A01 T00461026  RH  060%=      5-min Rain = 0
KFL1 240929Z 34006KT 05/M03 A3001 RMK A01 T00461031  RH  057%=      5-min Rain = 0
KFL1 240930Z 34006KT 05/M03 A3001 RMK A01 T00491034  RH  055%=      5-min Rain = 0
KFL1 240931Z 34006KT 05/M03 A3001 RMK A01 T00511034  RH  054%=      5-min Rain = 0
KFL1 240932Z 34005KT 05/M03 A3001 RMK A01 T00531031  RH  054%=      5-min Rain = 0
KFL1 240933Z 35005KT 06/M03 A3001 RMK A01 T00561030  RH  054%=      5-min Rain = 0
KFL1 240934Z 34006KT 06/M03 A3001 RMK A01 T00581031  RH  053%=      5-min Rain = 0
KFL1 240935Z 34006KT 05/M03 A3001 RMK A01 T00541030  RH  055%=      5-min Rain = 0
KFL1 240936Z 35005KT 05/M03 A3001 RMK A01 T00521029  RH  056%=      5-min Rain = 0
KFL1 240937Z 35005KT 05/M03 A3001 RMK A01 T00481031  RH  056%=      5-min Rain = 0
KFL1 240938Z 35005KT 05/M03 A3001 RMK A01 T00481033  RH  055%=      5-min Rain = 0
KFL1 240939Z 00004KT 05/M03 A3001 RMK A01 T00511034  RH  054%=      5-min Rain = 0
KFL1 240940Z 00004KT 05/M04 A3001 RMK A01 T00511035  RH  054%=      5-min Rain = 0
KFL1 240941Z 00004KT 05/M03 A3001 RMK A01 T00511034  RH  054%=      5-min Rain = 0
KFL1 240942Z 00004KT 05/M03 A3001 RMK A01 T00501033  RH  055%=      5-min Rain = 0
KFL1 240943Z 00004KT 05/M03 A3001 RMK A01 T00491032  RH  056%=      5-min Rain = 0
KFL1 240944Z 00004KT 05/M03 A3001 RMK A01 T00461032  RH  057%=      5-min Rain = 0
KFL1 240945Z 00004KT 05/M03 A3001 RMK A01 T00451030  RH  058%=      5-min Rain = 0
KFL1 240946Z 36004KT 04/M03 A3001 RMK A01 T00411031  RH  059%=      5-min Rain = 0
KFL1 240947Z 00004KT 04/M03 A3001 RMK A01 T00401031  RH  060%=      5-min Rain = 0
KFL1 240948Z 00003KT 04/M03 A3001 RMK A01 T00391033  RH  060%=      5-min Rain = 0
KFL1 240949Z 01003KT 04/M03 A3001 RMK A01 T00391032  RH  059%=      5-min Rain = 0
KFL1 240950Z 03002KT 04/M04 A3001 RMK A01 T00381036  RH  059%=      5-min Rain = 0
KFL1 240951Z 02002KT 04/M04 A3001 RMK A01 T00411035  RH  058%=      5-min Rain = 0
KFL1 240952Z 01003KT 04/M03 A3001 RMK A01 T00441032  RH  058%=      5-min Rain = 0
KFL1 240953Z 01002KT 04/M03 A3001 RMK A01 T00441030  RH  058%=      5-min Rain = 0
KFL1 240954Z 03003KT 04/M03 A3001 RMK A01 T00401031  RH  059%=      5-min Rain = 0
KFL1 240955Z 03003KT 04/M03 A3001 RMK A01 T00411033  RH  058%=      5-min Rain = 0
KFL1 240956Z 04004KT 04/M03 A3001 RMK A01 T00431034  RH  058%=      5-min Rain = 0
KFL1 240957Z 04004KT 04/M03 A3001 RMK A01 T00441033  RH  057%=      5-min Rain = 0
KFL1 240958Z 04004KT 05/M03 A3001 RMK A01 T00451034  RH  057%=      5-min Rain = 0
KFL1 240959Z 04004KT 05/M03 A3001 RMK A01 T00461034  RH  056%=      5-min Rain = 0
KFL1 241000Z 04004KT 05/M04 A3001 RMK A01 T00461035  RH  056%=      5-min Rain = 0
KFL1 241001Z 04004KT 05/M03 A3001 RMK A01 T00471034  RH  056%=      5-min Rain = 0
KFL1 241002Z 04004KT 05/M03 A3001 RMK A01 T00471034  RH  056%=      5-min Rain = 0
KFL1 241003Z 03004KT 05/M03 A3001 RMK A01 T00491033  RH  055%=      5-min Rain = 0
KFL1 241004Z 04004KT 05/M03 A3001 RMK A01 T00481034  RH  055%=      5-min Rain = 0
KFL1 241005Z 04005KT 05/M03 A3001 RMK A01 T00501032  RH  056%=      5-min Rain = 0
KFL1 241006Z 04005KT 05/M03 A3001 RMK A01 T00481032  RH  056%=      5-min Rain = 0
KFL1 241007Z 04005KT 05/M03 A3001 RMK A01 T00471030  RH  057%=      5-min Rain = 0
KFL1 241008Z 03005KT 04/M03 A3001 RMK A01 T00441032  RH  058%=      5-min Rain = 0
KFL1 241009Z 04005KT 04/M03 A3001 RMK A01 T00431033  RH  058%=      5-min Rain = 0
KFL1 241010Z 04004KT 04/M03 A3001 RMK A01 T00441033  RH  057%=      5-min Rain = 0
KFL1 241011Z 04005KT 05/M03 A3001 RMK A01 T00451033  RH  057%=      5-min Rain = 0
KFL1 241012Z 03004KT 05/M03 A3001 RMK A01 T00471033  RH  056%=      5-min Rain = 0
KFL1 241013Z 04004KT 05/M03 A3001 RMK A01 T00491033  RH  056%=      5-min Rain = 0
KFL1 241014Z 04004KT 05/M03 A3001 RMK A01 T00501033  RH  055%=      5-min Rain = 0
KFL1 241015Z 04004KT 05/M03 A3001 RMK A01 T00501033  RH  055%=      5-min Rain = 0
KFL1 241016Z 04004KT 05/M03 A3001 RMK A01 T00491034  RH  055%=      5-min Rain = 0
KFL1 241017Z 04004KT 05/M03 A3001 RMK A01 T00501031  RH  055%=      5-min Rain = 0
KFL1 241018Z 04005KT 05/M03 A3002 RMK A01 T00461033  RH  056%=      5-min Rain = 0
KFL1 241019Z 04005KT 04/M03 A3002 RMK A01 T00441033  RH  057%=      5-min Rain = 0
KFL1 241020Z 04005KT 04/M03 A3002 RMK A01 T00441032  RH  058%=      5-min Rain = 0
KFL1 241021Z 04005KT 04/M03 A3002 RMK A01 T00421032  RH  058%=      5-min Rain = 0
KFL1 241022Z 04005KT 04/M03 A3001 RMK A01 T00411033  RH  059%=      5-min Rain = 0
KFL1 241023Z 04004KT 04/M04 A3001 RMK A01 T00411035  RH  058%=      5-min Rain = 0
KFL1 241024Z 04004KT 05/M03 A3001 RMK A01 T00461032  RH  057%=      5-min Rain = 0
KFL1 241025Z 04003KT 05/M03 A3002 RMK A01 T00481031  RH  057%=      5-min Rain = 0
KFL1 241026Z 03003KT 05/M03 A3002 RMK A01 T00461031  RH  057%=      5-min Rain = 0
KFL1 241027Z 03003KT 04/M03 A3002 RMK A01 T00421031  RH  059%=      5-min Rain = 0
KFL1 241028Z 03003KT 04/M03 A3001 RMK A01 T00361031  RH  062%=      5-min Rain = 0
KFL1 241029Z 02003KT 03/M03 A3001 RMK A01 T00321032  RH  063%=      5-min Rain = 0
KFL1 241030Z 03003KT 03/M03 A3001 RMK A01 T00291030  RH  065%=      5-min Rain = 0
KFL1 241031Z 03003KT 02/M03 A3001 RMK A01 T00241031  RH  067%=      5-min Rain = 0
KFL1 241032Z 02003KT 02/M03 A3001 RMK A01 T00231032  RH  067%=      5-min Rain = 0
KFL1 241033Z 01003KT 02/M03 A3001 RMK A01 T00221033  RH  067%=      5-min Rain = 0
KFL1 241034Z 01004KT 02/M03 A3002 RMK A01 T00211031  RH  068%=      5-min Rain = 0
KFL1 241035Z 02004KT 02/M03 A3002 RMK A01 T00211029  RH  070%=      5-min Rain = 0
KFL1 241036Z 02004KT 02/M03 A3002 RMK A01 T00201028  RH  071%=      5-min Rain = 0
KFL1 241037Z 01003KT 02/M03 A3002 RMK A01 T00201029  RH  070%=      5-min Rain = 0
KFL1 241038Z 03004KT 02/M03 A3002 RMK A01 T00211031  RH  069%=      5-min Rain = 0
KFL1 241039Z 04004KT 02/M03 A3002 RMK A01 T00231030  RH  068%=      5-min Rain = 0
KFL1 241040Z 04004KT 03/M03 A3001 RMK A01 T00251032  RH  066%=      5-min Rain = 0
KFL1 241041Z 03004KT 03/M03 A3002 RMK A01 T00271031  RH  066%=      5-min Rain = 0
KFL1 241042Z 03004KT 03/M03 A3002 RMK A01 T00281033  RH  064%=      5-min Rain = 0
KFL1 241043Z 04004KT 03/M03 A3002 RMK A01 T00301034  RH  063%=      5-min Rain = 0
KFL1 241044Z 04004KT 03/M03 A3002 RMK A01 T00331031  RH  063%=      5-min Rain = 0
KFL1 241045Z 04004KT 03/M03 A3002 RMK A01 T00331033  RH  062%=      5-min Rain = 0
KFL1 241046Z 05005KT 04/M03 A3002 RMK A01 T00351032  RH  061%=      5-min Rain = 0
KFL1 241047Z 05006KT 04/M03 A3002 RMK A01 T00361032  RH  061%=      5-min Rain = 0
KFL1 241048Z 04005KT 04/M03 A3002 RMK A01 T00391031  RH  060%=      5-min Rain = 0
KFL1 241049Z 04005KT 04/M03 A3002 RMK A01 T00431030  RH  059%=      5-min Rain = 0
KFL1 241050Z 04006KT 05/M03 A3002 RMK A01 T00451031  RH  058%=      5-min Rain = 0
KFL1 241051Z 04005KT 05/M03 A3002 RMK A01 T00461031  RH  057%=      5-min Rain = 0
KFL1 241052Z 05005KT 05/M03 A3002 RMK A01 T00481030  RH  057%=      5-min Rain = 0
KFL1 241053Z 05005KT 05/M03 A3002 RMK A01 T00471031  RH  057%=      5-min Rain = 0
KFL1 241054Z 05006KT 05/M03 A3002 RMK A01 T00501029  RH  057%=      5-min Rain = 0
KFL1 241055Z 05006KT 05/M03 A3002 RMK A01 T00491030  RH  057%=      5-min Rain = 0
KFL1 241056Z 04006KT 05/M03 A3002 RMK A01 T00491031  RH  056%=      5-min Rain = 0
KFL1 241057Z 04006KT 05/M03 A3002 RMK A01 T00501030  RH  056%=      5-min Rain = 0
KFL1 241058Z 05006KT 05/M03 A3002 RMK A01 T00501031  RH  056%=      5-min Rain = 0
KFL1 241059Z 04006KT 05/M03 A3002 RMK A01 T00511031  RH  056%=      5-min Rain = 0
KFL1 241100Z 04005KT 05/M03 A3002 RMK A01 T00521030  RH  055%=      5-min Rain = 0
KFL1 241101Z 04006KT 05/M03 A3002 RMK A01 T00511032  RH  055%=      5-min Rain = 0
KFL1 241102Z 04006KT 05/M03 A3002 RMK A01 T00531030  RH  055%=      5-min Rain = 0
KFL1 241103Z 04005KT 05/M03 A3002 RMK A01 T00531030  RH  055%=      5-min Rain = 0
KFL1 241104Z 04005KT 05/M03 A3002 RMK A01 T00491030  RH  057%=      5-min Rain = 0
KFL1 241105Z 04006KT 05/M03 A3002 RMK A01 T00461031  RH  057%=      5-min Rain = 0
KFL1 241106Z 05006KT 05/M03 A3002 RMK A01 T00461032  RH  057%=      5-min Rain = 0
KFL1 241107Z 04006KT 05/M03 A3002 RMK A01 T00491032  RH  056%=      5-min Rain = 0
KFL1 241108Z 04006KT 05/M03 A3002 RMK A01 T00521031  RH  055%=      5-min Rain = 0
KFL1 241109Z 04005KT 05/M03 A3002 RMK A01 T00501029  RH  057%=      5-min Rain = 0
KFL1 241110Z 04005KT 04/M03 A3002 RMK A01 T00411029  RH  061%=      5-min Rain = 0
KFL1 241111Z 04005KT 03/M03 A3002 RMK A01 T00311029  RH  065%=      5-min Rain = 0
KFL1 241112Z 04005KT 03/M03 A3002 RMK A01 T00281029  RH  066%=      5-min Rain = 0
KFL1 241113Z 04005KT 02/M03 A3002 RMK A01 T00241028  RH  068%=      5-min Rain = 0
KFL1 241114Z 04005KT 02/M03 A3002 RMK A01 T00211028  RH  070%=      5-min Rain = 0
KFL1 241115Z 04005KT 02/M03 A3002 RMK A01 T00191027  RH  071%=      5-min Rain = 0
KFL1 241116Z 04005KT 02/M03 A3002 RMK A01 T00191027  RH  071%=      5-min Rain = 0
KFL1 241117Z 04005KT 02/M03 A3002 RMK A01 T00181027  RH  072%=      5-min Rain = 0
KFL1 241118Z 04006KT 02/M03 A3002 RMK A01 T00171027  RH  072%=      5-min Rain = 0
KFL1 241119Z 04005KT 02/M03 A3002 RMK A01 T00181028  RH  072%=      5-min Rain = 0
KFL1 241120Z 04004KT 02/M03 A3002 RMK A01 T00161027  RH  073%=      5-min Rain = 0
KFL1 241121Z 04005KT 01/M03 A3002 RMK A01 T00141028  RH  073%=      5-min Rain = 0
KFL1 241122Z 04005KT 02/M03 A3002 RMK A01 T00171027  RH  072%=      5-min Rain = 0
KFL1 241123Z 04005KT 02/M03 A3002 RMK A01 T00171026  RH  073%=      5-min Rain = 0
KFL1 241124Z 04006KT 01/M03 A3002 RMK A01 T00141028  RH  074%=      5-min Rain = 0
KFL1 241125Z 03006KT 01/M03 A3002 RMK A01 T00141028  RH  073%=      5-min Rain = 0
KFL1 241126Z 02006KT 01/M03 A3002 RMK A01 T00141028  RH  073%=      5-min Rain = 0
KFL1 241127Z 03006KT 01/M03 A3002 RMK A01 T00131030  RH  073%=      5-min Rain = 0
KFL1 241128Z 03006KT 01/M03 A3002 RMK A01 T00131030  RH  073%=      5-min Rain = 0
KFL1 241129Z 04006KT 01/M03 A3002 RMK A01 T00121029  RH  074%=      5-min Rain = 0
KFL1 241130Z 04005KT 01/M03 A3003 RMK A01 T00101030  RH  075%=      5-min Rain = 0
KFL1 241131Z 04005KT 01/M03 A3003 RMK A01 T00091029  RH  075%=      5-min Rain = 0
KFL1 241132Z 03004KT 01/M03 A3003 RMK A01 T00091029  RH  076%=      5-min Rain = 0
KFL1 241133Z 04005KT 01/M03 A3003 RMK A01 T00091029  RH  076%=      5-min Rain = 0
KFL1 241134Z 04006KT 01/M03 A3003 RMK A01 T00101030  RH  075%=      5-min Rain = 0
KFL1 241135Z 03005KT 01/M03 A3003 RMK A01 T00131028  RH  074%=      5-min Rain = 0
KFL1 241136Z 03006KT 01/M03 A3003 RMK A01 T00091028  RH  076%=      5-min Rain = 0
KFL1 241137Z 04006KT 01/M03 A3003 RMK A01 T00081028  RH  077%=      5-min Rain = 0
KFL1 241138Z 04006KT 01/M03 A3003 RMK A01 T00081029  RH  076%=      5-min Rain = 0
KFL1 241139Z 03005KT 01/M03 A3003 RMK A01 T00071029  RH  077%=      5-min Rain = 0
KFL1 241140Z 03005KT 01/M03 A3003 RMK A01 T00061028  RH  078%=      5-min Rain = 0
KFL1 241141Z 03005KT 01/M03 A3003 RMK A01 T00051028  RH  078%=      5-min Rain = 0
KFL1 241142Z 04005KT 01/M03 A3003 RMK A01 T00061028  RH  078%=      5-min Rain = 0
KFL1 241143Z 03005KT 01/M03 A3003 RMK A01 T00061028  RH  078%=      5-min Rain = 0
KFL1 241144Z 03006KT 01/M03 A3003 RMK A01 T00081027  RH  077%=      5-min Rain = 0
KFL1 241145Z 03006KT 01/M03 A3003 RMK A01 T00091027  RH  077%=      5-min Rain = 0
KFL1 241146Z 03005KT 01/M03 A3003 RMK A01 T00091029  RH  076%=      5-min Rain = 0
KFL1 241147Z 04005KT 01/M03 A3003 RMK A01 T00121029  RH  074%=      5-min Rain = 0
KFL1 241148Z 04005KT 02/M03 A3003 RMK A01 T00151031  RH  072%=      5-min Rain = 0
KFL1 241149Z 03005KT 02/M03 A3003 RMK A01 T00181030  RH  070%=      5-min Rain = 0
KFL1 241150Z 03005KT 02/M03 A3003 RMK A01 T00181029  RH  071%=      5-min Rain = 0
KFL1 241151Z 03006KT 02/M03 A3003 RMK A01 T00151031  RH  072%=      5-min Rain = 0
KFL1 241152Z 03005KT 01/M03 A3003 RMK A01 T00131030  RH  073%=      5-min Rain = 0
KFL1 241153Z 03005KT 02/M03 A3003 RMK A01 T00161029  RH  072%=      5-min Rain = 0
KFL1 241154Z 03005KT 02/M03 A3003 RMK A01 T00161029  RH  072%=      5-min Rain = 0
KFL1 241155Z 03005KT 02/M03 A3003 RMK A01 T00151030  RH  072%=      5-min Rain = 0
KFL1 241156Z 02005KT 02/M03 A3003 RMK A01 T00151031  RH  071%=      5-min Rain = 0
KFL1 241157Z 03005KT 02/M03 A3003 RMK A01 T00161031  RH  071%=      5-min Rain = 0
KFL1 241158Z 04005KT 02/M03 A3003 RMK A01 T00161030  RH  071%=      5-min Rain = 0
KFL1 241159Z 04005KT 02/M03 A3003 RMK A01 T00161030  RH  071%=      5-min Rain = 0
KFL1 241200Z 04005KT 02/M03 A3003 RMK A01 T00181029  RH  071%=      5-min Rain = 0
KFL1 241201Z 04005KT 02/M03 A3003 RMK A01 T00181030  RH  070%=      5-min Rain = 0
KFL1 241202Z 04005KT 02/M03 A3003 RMK A01 T00181030  RH  071%=      5-min Rain = 0
KFL1 241203Z 04006KT 02/M03 A3003 RMK A01 T00171030  RH  071%=      5-min Rain = 0
KFL1 241204Z 04005KT 02/M03 A3003 RMK A01 T00161032  RH  070%=      5-min Rain = 0
KFL1 241205Z 04006KT 02/M03 A3003 RMK A01 T00181033  RH  069%=      5-min Rain = 0
KFL1 241206Z 04005KT 02/M03 A3003 RMK A01 T00191032  RH  069%=      5-min Rain = 0
KFL1 241207Z 04007KT 02/M03 A3003 RMK A01 T00171032  RH  070%=      5-min Rain = 0
KFL1 241208Z 04007KT 02/M03 A3003 RMK A01 T00221031  RH  068%=      5-min Rain = 0
KFL1 241209Z 04006KT 03/M03 A3003 RMK A01 T00291030  RH  065%=      5-min Rain = 0
KFL1 241210Z 04007KT 03/M03 A3003 RMK A01 T00301031  RH  064%=      5-min Rain = 0
KFL1 241211Z 04007KT 03/M03 A3003 RMK A01 T00321032  RH  063%=      5-min Rain = 0
KFL1 241212Z 04007KT 04/M03 A3003 RMK A01 T00361032  RH  061%=      5-min Rain = 0
KFL1 241213Z 04006KT 04/M03 A3003 RMK A01 T00401032  RH  059%=      5-min Rain = 0
KFL1 241214Z 03005KT 04/M03 A3004 RMK A01 T00421033  RH  058%=      5-min Rain = 0
KFL1 241215Z 03006KT 04/M03 A3004 RMK A01 T00411028  RH  061%=      5-min Rain = 0
KFL1 241216Z 04007KT 03/M03 A3004 RMK A01 T00311030  RH  064%=      5-min Rain = 0
KFL1 241217Z 04007KT 03/M03 A3004 RMK A01 T00301031  RH  064%=      5-min Rain = 0
KFL1 241218Z 04006KT 04/M03 A3004 RMK A01 T00361030  RH  062%=      5-min Rain = 0
KFL1 241219Z 04006KT 04/M03 A3004 RMK A01 T00391031  RH  060%=      5-min Rain = 0
KFL1 241220Z 04006KT 04/M03 A3004 RMK A01 T00421032  RH  059%=      5-min Rain = 0
KFL1 241221Z 03005KT 05/M03 A3004 RMK A01 T00461033  RH  056%=      5-min Rain = 0
KFL1 241222Z 03005KT 04/M03 A3004 RMK A01 T00441029  RH  059%=      5-min Rain = 0
KFL1 241223Z 04006KT 03/M03 A3004 RMK A01 T00331029  RH  064%=      5-min Rain = 0
KFL1 241224Z 04006KT 03/M03 A3004 RMK A01 T00261028  RH  067%=      5-min Rain = 0
KFL1 241225Z 04006KT 02/M03 A3004 RMK A01 T00241027  RH  069%=      5-min Rain = 0
KFL1 241226Z 04005KT 02/M03 A3004 RMK A01 T00231028  RH  069%=      5-min Rain = 0
KFL1 241227Z 04006KT 02/M03 A3004 RMK A01 T00241026  RH  069%=      5-min Rain = 0
KFL1 241228Z 04005KT 03/M03 A3004 RMK A01 T00261027  RH  068%=      5-min Rain = 0
KFL1 241229Z 04003KT 03/M02 A3004 RMK A01 T00271023  RH  069%=      5-min Rain = 0
KFL1 241230Z 04004KT 02/M02 A3004 RMK A01 T00231024  RH  071%=      5-min Rain = 0
KFL1 241231Z 03005KT 02/M02 A3004 RMK A01 T00211024  RH  072%=      5-min Rain = 0
KFL1 241232Z 03005KT 02/M02 A3004 RMK A01 T00211024  RH  072%=      5-min Rain = 0
KFL1 241233Z 03005KT 02/M02 A3004 RMK A01 T00241023  RH  071%=      5-min Rain = 0
KFL1 241234Z 03005KT 03/M02 A3004 RMK A01 T00261022  RH  071%=      5-min Rain = 0
KFL1 241235Z 04006KT 03/M02 A3004 RMK A01 T00261024  RH  070%=      5-min Rain = 0
KFL1 241236Z 04005KT 03/M02 A3004 RMK A01 T00301023  RH  068%=      5-min Rain = 0
KFL1 241237Z 03005KT 03/M02 A3004 RMK A01 T00321023  RH  067%=      5-min Rain = 0
KFL1 241238Z 04005KT 03/M02 A3004 RMK A01 T00331022  RH  067%=      5-min Rain = 0
KFL1 241239Z 04005KT 03/M02 A3004 RMK A01 T00341021  RH  067%=      5-min Rain = 0
KFL1 241240Z 04005KT 03/M02 A3004 RMK A01 T00341023  RH  066%=      5-min Rain = 0
KFL1 241241Z 04005KT 04/M02 A3004 RMK A01 T00361023  RH  065%=      5-min Rain = 0
KFL1 241242Z 04004KT 04/M02 A3004 RMK A01 T00391023  RH  064%=      5-min Rain = 0
KFL1 241243Z 04004KT 04/M02 A3004 RMK A01 T00401024  RH  063%=      5-min Rain = 0
KFL1 241244Z 04005KT 04/M02 A3004 RMK A01 T00431024  RH  062%=      5-min Rain = 0
KFL1 241245Z 04005KT 05/M03 A3004 RMK A01 T00451025  RH  060%=      5-min Rain = 0
KFL1 241246Z 04005KT 05/M02 A3004 RMK A01 T00481023  RH  060%=      5-min Rain = 0
KFL1 241247Z 04005KT 05/M02 A3004 RMK A01 T00501023  RH  060%=      5-min Rain = 0
KFL1 241248Z 04004KT 05/M02 A3004 RMK A01 T00511023  RH  059%=      5-min Rain = 0
KFL1 241249Z 04004KT 05/M02 A3004 RMK A01 T00531022  RH  058%=      5-min Rain = 0
KFL1 241250Z 05004KT 05/M02 A3004 RMK A01 T00531021  RH  059%=      5-min Rain = 0
KFL1 241251Z 04004KT 05/M02 A3004 RMK A01 T00541019  RH  059%=      5-min Rain = 0
KFL1 241252Z 05004KT 06/M02 A3004 RMK A01 T00551019  RH  059%=      5-min Rain = 0
KFL1 241253Z 05004KT 06/M02 A3004 RMK A01 T00561018  RH  059%=      5-min Rain = 0
KFL1 241254Z 04004KT 06/M02 A3004 RMK A01 T00571018  RH  058%=      5-min Rain = 0
KFL1 241255Z 04003KT 06/M02 A3004 RMK A01 T00571019  RH  058%=      5-min Rain = 0
KFL1 241256Z 04004KT 06/M02 A3004 RMK A01 T00581018  RH  058%=      5-min Rain = 0
KFL1 241257Z 04003KT 06/M02 A3004 RMK A01 T00591018  RH  058%=      5-min Rain = 0
KFL1 241258Z 04003KT 06/M02 A3004 RMK A01 T00601018  RH  057%=      5-min Rain = 0
KFL1 241259Z 04004KT 06/M02 A3004 RMK A01 T00601018  RH  057%=      5-min Rain = 0
KFL1 241300Z 05003KT 06/M02 A3004 RMK A01 T00591019  RH  057%=      5-min Rain = 0
KFL1 241301Z 05003KT 06/M02 A3004 RMK A01 T00601017  RH  058%=      5-min Rain = 0
KFL1 241302Z 04003KT 06/M01 A3004 RMK A01 T00621014  RH  058%=      5-min Rain = 0
KFL1 241303Z 05003KT 06/M01 A3004 RMK A01 T00631014  RH  058%=      5-min Rain = 0
KFL1 241304Z 05003KT 06/M02 A3004 RMK A01 T00641015  RH  057%=      5-min Rain = 0
KFL1 241305Z 05002KT 07/M01 A3004 RMK A01 T00661014  RH  057%=      5-min Rain = 0
KFL1 241306Z 05002KT 07/M01 A3004 RMK A01 T00661014  RH  056%=      5-min Rain = 0
KFL1 241307Z 05003KT 07/M01 A3004 RMK A01 T00681014  RH  056%=      5-min Rain = 0
KFL1 241308Z 05003KT 07/M01 A3004 RMK A01 T00691013  RH  056%=      5-min Rain = 0
KFL1 241309Z 05003KT 07/M01 A3004 RMK A01 T00711011  RH  056%=      5-min Rain = 0
KFL1 241310Z 05002KT 07/M01 A3004 RMK A01 T00731011  RH  055%=      5-min Rain = 0
KFL1 241311Z 05003KT 07/M01 A3004 RMK A01 T00741012  RH  054%=      5-min Rain = 0
KFL1 241312Z 05003KT 07/M01 A3004 RMK A01 T00731014  RH  054%=      5-min Rain = 0
KFL1 241313Z 05003KT 07/M01 A3004 RMK A01 T00741013  RH  054%=      5-min Rain = 0
KFL1 241314Z 05002KT 08/M01 A3004 RMK A01 T00761010  RH  054%=      5-min Rain = 0
KFL1 241315Z 06002KT 08/M01 A3004 RMK A01 T00771009  RH  054%=      5-min Rain = 0
KFL1 241316Z 06002KT 08/M01 A3004 RMK A01 T00781008  RH  054%=      5-min Rain = 0
KFL1 241317Z 06002KT 08/M01 A3005 RMK A01 T00811008  RH  053%=      5-min Rain = 0
KFL1 241318Z 06003KT 08/M01 A3005 RMK A01 T00811010  RH  053%=      5-min Rain = 0
KFL1 241319Z 06002KT 08/M01 A3005 RMK A01 T00841008  RH  052%=      5-min Rain = 0
KFL1 241320Z 06002KT 08/M01 A3005 RMK A01 T00841010  RH  052%=      5-min Rain = 0
KFL1 241321Z 06002KT 09/M01 A3005 RMK A01 T00871009  RH  051%=      5-min Rain = 0
KFL1 241322Z 07002KT 09/M01 A3005 RMK A01 T00881011  RH  050%=      5-min Rain = 0
KFL1 241323Z 07002KT 09/M01 A3005 RMK A01 T00891011  RH  049%=      5-min Rain = 0
KFL1 241324Z 07002KT 09/M01 A3005 RMK A01 T00911012  RH  048%=      5-min Rain = 0
KFL1 241325Z 07002KT 09/M01 A3005 RMK A01 T00931010  RH  049%=      5-min Rain = 0
KFL1 241326Z 07002KT 10/M01 A3005 RMK A01 T00951012  RH  047%=      5-min Rain = 0
KFL1 241327Z 08001KT 10/M01 A3005 RMK A01 T00961011  RH  047%=      5-min Rain = 0
KFL1 241328Z 08002KT 10/M01 A3005 RMK A01 T00961012  RH  047%=      5-min Rain = 0
KFL1 241329Z 08002KT 10/M01 A3005 RMK A01 T00961013  RH  046%=      5-min Rain = 0
KFL1 241330Z 08002KT 10/M02 A3005 RMK A01 T00961016  RH  046%=      5-min Rain = 0
KFL1 241331Z 08002KT 10/M01 A3005 RMK A01 T00981012  RH  046%=      5-min Rain = 0
KFL1 241332Z 08002KT 10/M01 A3005 RMK A01 T00971012  RH  047%=      5-min Rain = 0
KFL1 241333Z 09001KT 10/M01 A3005 RMK A01 T00971008  RH  048%=      5-min Rain = 0
KFL1 241334Z 08001KT 10/M01 A3005 RMK A01 T01001006  RH  048%=      5-min Rain = 0
KFL1 241335Z 07001KT 10/M01 A3005 RMK A01 T01011010  RH  046%=      5-min Rain = 0
KFL1 241336Z 07001KT 10/M01 A3005 RMK A01 T01011010  RH  046%=      5-min Rain = 0
KFL1 241337Z 08001KT 10/M01 A3005 RMK A01 T01021007  RH  047%=      5-min Rain = 0
KFL1 241338Z 10001KT 11/M00 A3005 RMK A01 T01051003  RH  047%=      5-min Rain = 0
KFL1 241339Z 11001KT 11/M01 A3005 RMK A01 T01061011  RH  044%=      5-min Rain = 0
KFL1 241340Z 12001KT 11/M01 A3005 RMK A01 T01071014  RH  043%=      5-min Rain = 0
KFL1 241341Z 12001KT 11/M01 A3005 RMK A01 T01091011  RH  043%=      5-min Rain = 0
KFL1 241342Z 12001KT 11/M01 A3005 RMK A01 T01101013  RH  042%=      5-min Rain = 0
KFL1 241343Z 14002KT 11/M01 A3005 RMK A01 T01101013  RH  042%=      5-min Rain = 0
KFL1 241344Z 13001KT 11/M01 A3005 RMK A01 T01121008  RH  044%=      5-min Rain = 0
KFL1 241345Z 16001KT 11/M01 A3005 RMK A01 T01131014  RH  041%=      5-min Rain = 0
KFL1 241346Z 18002KT 11/M02 A3005 RMK A01 T01141016  RH  040%=      5-min Rain = 0
KFL1 241347Z 21002KT 12/M02 A3005 RMK A01 T01161018  RH  039%=      5-min Rain = 0
KFL1 241348Z 22002KT 12/M01 A3005 RMK A01 T01171014  RH  040%=      5-min Rain = 0
KFL1 241349Z 21002KT 12/M01 A3005 RMK A01 T01181011  RH  041%=      5-min Rain = 0
KFL1 241350Z 18001KT 12/M01 A3005 RMK A01 T01201011  RH  040%=      5-min Rain = 0
KFL1 241351Z 20002KT 12/M02 A3005 RMK A01 T01201020  RH  038%=      5-min Rain = 0
KFL1 241352Z 20003KT 12/M02 A3005 RMK A01 T01201015  RH  039%=      5-min Rain = 0
KFL1 241353Z 20002KT 12/M02 A3005 RMK A01 T01201018  RH  038%=      5-min Rain = 0
KFL1 241354Z 21002KT 12/M02 A3005 RMK A01 T01201017  RH  039%=      5-min Rain = 0
KFL1 241355Z 20004KT 12/M02 A3005 RMK A01 T01211017  RH  038%=      5-min Rain = 0
KFL1 241356Z 20003KT 12/M02 A3005 RMK A01 T01221019  RH  037%=      5-min Rain = 0
KFL1 241357Z 20003KT 12/M02 A3005 RMK A01 T01221024  RH  036%=      5-min Rain = 0
KFL1 241358Z 22004KT 12/M02 A3005 RMK A01 T01221022  RH  037%=      5-min Rain = 0
KFL1 241359Z 21005KT 12/M02 A3005 RMK A01 T01221015  RH  039%=      5-min Rain = 0
KFL1 241400Z 23006KT 12/M02 A3005 RMK A01 T01231019  RH  037%=      5-min Rain = 0
KFL1 241401Z 21004KT 12/M02 A3005 RMK A01 T01221022  RH  037%=      5-min Rain = 0
KFL1 241402Z 22005KT 12/M01 A3005 RMK A01 T01241014  RH  038%=      5-min Rain = 0
KFL1 241403Z 22004KT 12/M01 A3005 RMK A01 T01241014  RH  038%=      5-min Rain = 0
KFL1 241404Z 21006KT 13/M02 A3005 RMK A01 T01261024  RH  035%=      5-min Rain = 0
KFL1 241405Z 21007KT 13/M03 A3005 RMK A01 T01251027  RH  035%=      5-min Rain = 0
KFL1 241406Z 22007KT 13/M03 A3005 RMK A01 T01251025  RH  035%=      5-min Rain = 0
KFL1 241407Z 22007KT 13/M03 A3005 RMK A01 T01271027  RH  034%=      5-min Rain = 0
KFL1 241408Z 21007KT 12/M03 A3005 RMK A01 T01241032  RH  034%=      5-min Rain = 0
KFL1 241409Z 22006KT 12/M03 A3005 RMK A01 T01241028  RH  034%=      5-min Rain = 0
KFL1 241410Z 21007KT 13/M03 A3005 RMK A01 T01251028  RH  034%=      5-min Rain = 0
KFL1 241411Z 22006KT 12/M03 A3005 RMK A01 T01231025  RH  035%=      5-min Rain = 0
KFL1 241412Z 22007KT 12/M02 A3005 RMK A01 T01231022  RH  036%=      5-min Rain = 0
KFL1 241413Z 22006KT 12/M03 A3006 RMK A01 T01241028  RH  035%=      5-min Rain = 0
KFL1 241414Z 23007KT 13/M03 A3006 RMK A01 T01251030  RH  034%=      5-min Rain = 0
KFL1 241415Z 22005KT 13/M03 A3006 RMK A01 T01251030  RH  034%=      5-min Rain = 0
KFL1 241416Z 23007KT 13/M04 A3006 RMK A01 T01261038  RH  032%=      5-min Rain = 0
KFL1 241417Z 23006KT 13/M04 A3006 RMK A01 T01251036  RH  032%=      5-min Rain = 0
KFL1 241418Z 21005KT 12/M02 A3006 RMK A01 T01241024  RH  036%=      5-min Rain = 0
KFL1 241419Z 23007KT 13/M03 A3006 RMK A01 T01271025  RH  035%=      5-min Rain = 0
KFL1 241420Z 23006KT 13/M03 A3006 RMK A01 T01261034  RH  033%=      5-min Rain = 0
KFL1 241421Z 23005KT 13/M03 A3006 RMK A01 T01261032  RH  033%=      5-min Rain = 0
KFL1 241422Z 25006KT 13/M02 A3006 RMK A01 T01261023  RH  035%=      5-min Rain = 0
KFL1 241423Z 24005KT 13/M02 A3006 RMK A01 T01271022  RH  035%=      5-min Rain = 0
KFL1 241424Z 23006KT 13/M02 A3006 RMK A01 T01271024  RH  035%=      5-min Rain = 0
KFL1 241425Z 25005KT 13/M02 A3006 RMK A01 T01281023  RH  035%=      5-min Rain = 0
KFL1 241426Z 23007KT 13/M02 A3006 RMK A01 T01271021  RH  036%=      5-min Rain = 0
KFL1 241427Z 22007KT 13/M03 A3006 RMK A01 T01281027  RH  034%=      5-min Rain = 0
KFL1 241428Z 23006KT 13/M03 A3006 RMK A01 T01281034  RH  032%=      5-min Rain = 0
KFL1 241429Z 23006KT 13/M03 A3006 RMK A01 T01281029  RH  033%=      5-min Rain = 0
KFL1 241430Z 22006KT 13/M03 A3006 RMK A01 T01271029  RH  034%=      5-min Rain = 0
KFL1 241431Z 23008KT 13/M03 A3006 RMK A01 T01281030  RH  033%=      5-min Rain = 0
KFL1 241432Z 23008KT 13/M04 A3006 RMK A01 T01291035  RH  032%=      5-min Rain = 0
KFL1 241433Z 24006KT 13/M04 A3006 RMK A01 T01291042  RH  030%=      5-min Rain = 0
KFL1 241434Z 25007KT 13/M04 A3006 RMK A01 T01271042  RH  031%=      5-min Rain = 0
KFL1 241435Z 23007KT 13/M04 A3006 RMK A01 T01261041  RH  031%=      5-min Rain = 0
KFL1 241436Z 24007KT 13/M04 A3006 RMK A01 T01261037  RH  032%=      5-min Rain = 0
KFL1 241437Z 22005KT 13/M03 A3006 RMK A01 T01251030  RH  034%=      5-min Rain = 0
KFL1 241438Z 22008KT 13/M03 A3006 RMK A01 T01271026  RH  034%=      5-min Rain = 0
KFL1 241439Z 24007KT 13/M03 A3006 RMK A01 T01281029  RH  034%=      5-min Rain = 0
KFL1 241440Z 24007KT 13/M03 A3006 RMK A01 T01281025  RH  034%=      5-min Rain = 0
KFL1 241441Z 23006KT 13/M02 A3006 RMK A01 T01301024  RH  034%=      5-min Rain = 0
KFL1 241442Z 23007KT 13/M03 A3006 RMK A01 T01301029  RH  033%=      5-min Rain = 0
KFL1 241443Z 23006KT 13/M03 A3006 RMK A01 T01301028  RH  033%=      5-min Rain = 0
KFL1 241444Z 23008KT 13/M03 A3006 RMK A01 T01301031  RH  033%=      5-min Rain = 0
KFL1 241445Z 23008KT 13/M03 A3006 RMK A01 T01301034  RH  032%=      5-min Rain = 0
KFL1 241446Z 24008KT 13/M03 A3006 RMK A01 T01301032  RH  032%=      5-min Rain = 0
KFL1 241447Z 24007KT 13/M03 A3006 RMK A01 T01301032  RH  032%=      5-min Rain = 0
KFL1 241448Z 22008KT 13/M03 A3006 RMK A01 T01311033  RH  032%=      5-min Rain = 0
KFL1 241449Z 22008KT 13/M04 A3006 RMK A01 T01311036  RH  031%=      5-min Rain = 0
KFL1 241450Z 21007KT 13/M04 A3006 RMK A01 T01301040  RH  031%=      5-min Rain = 0
KFL1 241451Z 21007KT 13/M03 A3006 RMK A01 T01291034  RH  032%=      5-min Rain = 0
KFL1 241452Z 22008KT 13/M03 A3006 RMK A01 T01291033  RH  032%=      5-min Rain = 0
KFL1 241453Z 20007KT 13/M03 A3006 RMK A01 T01321031  RH  032%=      5-min Rain = 0
KFL1 241454Z 21008KT 13/M03 A3006 RMK A01 T01321029  RH  033%=      5-min Rain = 0
KFL1 241455Z 22007KT 13/M02 A3006 RMK A01 T01331024  RH  033%=      5-min Rain = 0
KFL1 241456Z 24009KT 13/M03 A3006 RMK A01 T01341026  RH  033%=      5-min Rain = 0
KFL1 241457Z 23006KT 14/M03 A3006 RMK A01 T01351030  RH  032%=      5-min Rain = 0
KFL1 241458Z 22009KT 13/M03 A3006 RMK A01 T01331032  RH  031%=      5-min Rain = 0
KFL1 241459Z 21007KT 13/M03 A3006 RMK A01 T01331026  RH  033%=      5-min Rain = 0
KFL1 241500Z 22008KT 14/M03 A3006 RMK A01 T01351032  RH  031%=      5-min Rain = 0
KFL1 241501Z 21007KT 14/M03 A3006 RMK A01 T01371034  RH  030%=      5-min Rain = 0
KFL1 241502Z 22007KT 14/M04 A3006 RMK A01 T01361035  RH  030%=      5-min Rain = 0
KFL1 241503Z 23007KT 14/M03 A3006 RMK A01 T01351033  RH  031%=      5-min Rain = 0
KFL1 241504Z 23008KT 14/M04 A3006 RMK A01 T01351036  RH  030%=      5-min Rain = 0
KFL1 241505Z 23004KT 13/M04 A3006 RMK A01 T01341039  RH  030%=      5-min Rain = 0
KFL1 241506Z 21006KT 13/M04 A3006 RMK A01 T01331035  RH  031%=      5-min Rain = 0
KFL1 241507Z 21009KT 13/M04 A3006 RMK A01 T01341036  RH  030%=      5-min Rain = 0
KFL1 241508Z 22008KT 13/M04 A3006 RMK A01 T01341037  RH  030%=      5-min Rain = 0
KFL1 241509Z 22006G11KT 14/M04 A3006 RMK A01 T01351039  RH  030%=      5-min Rain = 0
KFL1 241510Z 23004KT 13/M04 A3006 RMK A01 T01341038  RH  030%=      5-min Rain = 0
KFL1 241511Z 24007KT 13/M03 A3006 RMK A01 T01341030  RH  032%=      5-min Rain = 0
KFL1 241512Z 24008KT 14/M04 A3006 RMK A01 T01361035  RH  030%=      5-min Rain = 0
KFL1 241513Z 25008KT 13/M04 A3006 RMK A01 T01341041  RH  029%=      5-min Rain = 0
KFL1 241514Z 24006KT 13/M03 A3006 RMK A01 T01341033  RH  031%=      5-min Rain = 0
KFL1 241515Z 23008KT 13/M04 A3006 RMK A01 T01341035  RH  031%=      5-min Rain = 0
KFL1 241516Z 23009KT 14/M03 A3006 RMK A01 T01361030  RH  032%=      5-min Rain = 0
KFL1 241517Z 22008G13KT 14/M03 A3006 RMK A01 T01361032  RH  031%=      5-min Rain = 0
KFL1 241518Z 21010KT 14/M04 A3006 RMK A01 T01361035  RH  030%=      5-min Rain = 0
KFL1 241519Z 21007KT 14/M04 A3006 RMK A01 T01351040  RH  030%=      5-min Rain = 0
KFL1 241520Z 19005KT 13/M04 A3006 RMK A01 T01341036  RH  031%=      5-min Rain = 0
KFL1 241521Z 20005KT 14/M03 A3006 RMK A01 T01351032  RH  031%=      5-min Rain = 0
KFL1 241522Z 19006KT 14/M03 A3006 RMK A01 T01401026  RH  032%=      5-min Rain = 0
KFL1 241523Z 21009KT 14/M04 A3006 RMK A01 T01401035  RH  030%=      5-min Rain = 0
KFL1 241524Z 21009KT 14/M03 A3006 RMK A01 T01411031  RH  030%=      5-min Rain = 0
KFL1 241525Z 23007KT 14/M03 A3006 RMK A01 T01411027  RH  031%=      5-min Rain = 0
KFL1 241526Z 24008KT 14/M04 A3006 RMK A01 T01411037  RH  029%=      5-min Rain = 0
KFL1 241527Z 23010KT 14/M04 A3006 RMK A01 T01391039  RH  029%=      5-min Rain = 0
KFL1 241528Z 23011KT 14/M04 A3007 RMK A01 T01381037  RH  030%=      5-min Rain = 0
KFL1 241529Z 23013KT 14/M03 A3007 RMK A01 T01381033  RH  030%=      5-min Rain = 0
KFL1 241530Z 24010KT 14/M03 A3007 RMK A01 T01401034  RH  030%=      5-min Rain = 0
KFL1 241531Z 22009KT 14/M04 A3007 RMK A01 T01401035  RH  030%=      5-min Rain = 0
KFL1 241532Z 22011KT 14/M03 A3006 RMK A01 T01401034  RH  030%=      5-min Rain = 0
KFL1 241533Z 21013KT 14/M04 A3006 RMK A01 T01401038  RH  029%=      5-min Rain = 0
KFL1 241534Z 22012KT 14/M04 A3006 RMK A01 T01391042  RH  028%=      5-min Rain = 0
KFL1 241535Z 21011KT 14/M04 A3006 RMK A01 T01381042  RH  028%=      5-min Rain = 0
KFL1 241536Z 22013KT 14/M04 A3006 RMK A01 T01371039  RH  029%=      5-min Rain = 0
KFL1 241537Z 22010KT 14/M04 A3006 RMK A01 T01361043  RH  029%=      5-min Rain = 0
KFL1 241538Z 23010KT 14/M04 A3006 RMK A01 T01371038  RH  029%=      5-min Rain = 0
KFL1 241539Z 24010KT 14/M04 A3006 RMK A01 T01361038  RH  030%=      5-min Rain = 0
KFL1 241540Z 22007KT 14/M04 A3006 RMK A01 T01371038  RH  029%=      5-min Rain = 0
KFL1 241541Z 23010G15KT 14/M03 A3006 RMK A01 T01391033  RH  030%=      5-min Rain = 0
KFL1 241542Z 24011KT 14/M04 A3006 RMK A01 T01381043  RH  028%=      5-min Rain = 0
KFL1 241543Z 24013KT 14/M04 A3006 RMK A01 T01371042  RH  029%=      5-min Rain = 0
KFL1 241544Z 24009KT 14/M03 A3006 RMK A01 T01391034  RH  030%=      5-min Rain = 0
KFL1 241545Z 25008G13KT 14/M03 A3006 RMK A01 T01411034  RH  030%=      5-min Rain = 0
KFL1 241546Z 23007KT 14/M03 A3006 RMK A01 T01421033  RH  030%=      5-min Rain = 0
KFL1 241547Z 24008KT 14/M03 A3006 RMK A01 T01441029  RH  030%=      5-min Rain = 0
KFL1 241548Z 23011G17KT 15/M03 A3006 RMK A01 T01451032  RH  029%=      5-min Rain = 0
KFL1 241549Z 25012KT 15/M04 A3006 RMK A01 T01451037  RH  028%=      5-min Rain = 0
KFL1 241550Z 25009KT 14/M04 A3006 RMK A01 T01431044  RH  027%=      5-min Rain = 0
KFL1 241551Z 22008KT 14/M04 A3006 RMK A01 T01411040  RH  028%=      5-min Rain = 0
KFL1 241552Z 21009KT 14/M04 A3006 RMK A01 T01411039  RH  028%=      5-min Rain = 0
KFL1 241553Z 23009KT 14/M04 A3006 RMK A01 T01421038  RH  029%=      5-min Rain = 0
KFL1 241554Z 23008KT 14/M04 A3006 RMK A01 T01421036  RH  029%=      5-min Rain = 0
KFL1 241555Z 22008KT 14/M03 A3006 RMK A01 T01441030  RH  030%=      5-min Rain = 0
KFL1 241556Z 25009KT 15/M03 A3006 RMK A01 T01461031  RH  029%=      5-min Rain = 0
KFL1 241557Z 25012KT 15/M04 A3006 RMK A01 T01451042  RH  027%=      5-min Rain = 0
KFL1 241558Z 25010KT 14/M05 A3006 RMK A01 T01431045  RH  027%=      5-min Rain = 0
KFL1 241559Z 23008KT 14/M04 A3006 RMK A01 T01411042  RH  028%=      5-min Rain = 0
KFL1 241600Z 24010KT 14/M04 A3006 RMK A01 T01411037  RH  029%=      5-min Rain = 0
KFL1 241601Z 25010KT 14/M04 A3006 RMK A01 T01431043  RH  027%=      5-min Rain = 0
KFL1 241602Z 25013KT 14/M05 A3006 RMK A01 T01421046  RH  027%=      5-min Rain = 0
KFL1 241603Z 26012KT 14/M05 A3006 RMK A01 T01381048  RH  027%=      5-min Rain = 0
KFL1 241604Z 26008KT 14/M05 A3006 RMK A01 T01381045  RH  028%=      5-min Rain = 0
KFL1 241605Z 26010KT 14/M04 A3006 RMK A01 T01401038  RH  029%=      5-min Rain = 0
KFL1 241606Z 26011G16KT 14/M05 A3006 RMK A01 T01411045  RH  027%=      5-min Rain = 0
KFL1 241607Z 23012KT 14/M03 A3006 RMK A01 T01421034  RH  029%=      5-min Rain = 0
KFL1 241608Z 23011G16KT 15/M04 A3006 RMK A01 T01451036  RH  028%=      5-min Rain = 0
KFL1 241609Z 25012KT 14/M04 A3006 RMK A01 T01421042  RH  028%=      5-min Rain = 0
KFL1 241610Z 26012KT 14/M05 A3006 RMK A01 T01401047  RH  027%=      5-min Rain = 0
KFL1 241611Z 26010KT 14/M04 A3006 RMK A01 T01381044  RH  028%=      5-min Rain = 0
KFL1 241612Z 24011KT 14/M04 A3006 RMK A01 T01391041  RH  029%=      5-min Rain = 0
KFL1 241613Z 24011KT 14/M05 A3006 RMK A01 T01391045  RH  028%=      5-min Rain = 0
KFL1 241614Z 23007KT 14/M04 A3006 RMK A01 T01391042  RH  028%=      5-min Rain = 0
KFL1 241615Z 24009KT 14/M04 A3006 RMK A01 T01391042  RH  028%=      5-min Rain = 0
KFL1 241616Z 24007KT 14/M03 A3006 RMK A01 T01421031  RH  030%=      5-min Rain = 0
KFL1 241617Z 26009G15KT 14/M04 A3006 RMK A01 T01431040  RH  028%=      5-min Rain = 0
KFL1 241618Z 23010G15KT 15/M03 A3006 RMK A01 T01451028  RH  030%=      5-min Rain = 0
KFL1 241619Z 26011KT 15/M04 A3006 RMK A01 T01461040  RH  027%=      5-min Rain = 0
KFL1 241620Z 25011KT 15/M04 A3006 RMK A01 T01451035  RH  029%=      5-min Rain = 0
KFL1 241621Z 25007KT 15/M03 A3006 RMK A01 T01451034  RH  029%=      5-min Rain = 0
KFL1 241622Z 25006G11KT 15/M03 A3006 RMK A01 T01471027  RH  030%=      5-min Rain = 0
KFL1 241623Z 25005G10KT 15/M03 A3006 RMK A01 T01481034  RH  028%=      5-min Rain = 0
KFL1 241624Z 26004G9KT 15/M03 A3006 RMK A01 T01501033  RH  028%=      5-min Rain = 0
KFL1 241625Z 23011KT 15/M04 A3006 RMK A01 T01501035  RH  028%=      5-min Rain = 0
KFL1 241626Z 23010KT 15/M03 A3006 RMK A01 T01491034  RH  028%=      5-min Rain = 0
KFL1 241627Z 21010KT 15/M04 A3006 RMK A01 T01491035  RH  028%=      5-min Rain = 0
KFL1 241628Z 21009G14KT 15/M05 A3006 RMK A01 T01501045  RH  026%=      5-min Rain = 0
KFL1 241629Z 22011KT 15/M04 A3006 RMK A01 T01491042  RH  026%=      5-min Rain = 0
KFL1 241630Z 22011KT 15/M05 A3006 RMK A01 T01481045  RH  026%=      5-min Rain = 0
KFL1 241631Z 24007KT 15/M06 A3006 RMK A01 T01471056  RH  024%=      5-min Rain = 0
KFL1 241632Z 24010KT 15/M05 A3006 RMK A01 T01481046  RH  026%=      5-min Rain = 0
KFL1 241633Z 23007KT 15/M04 A3006 RMK A01 T01471044  RH  026%=      5-min Rain = 0
KFL1 241634Z 22008KT 15/M03 A3006 RMK A01 T01501034  RH  028%=      5-min Rain = 0
KFL1 241635Z 23015G21KT 15/M04 A3006 RMK A01 T01531035  RH  027%=      5-min Rain = 0
KFL1 241636Z 23009G14KT 15/M05 A3006 RMK A01 T01521049  RH  025%=      5-min Rain = 0
KFL1 241637Z 23013G18KT 15/M05 A3006 RMK A01 T01521048  RH  025%=      5-min Rain = 0
KFL1 241638Z 25012G18KT 15/M05 A3006 RMK A01 T01511045  RH  026%=      5-min Rain = 0
KFL1 241639Z 25015KT 15/M05 A3006 RMK A01 T01521052  RH  024%=      5-min Rain = 0
KFL1 241640Z 25012KT 15/M06 A3006 RMK A01 T01481061  RH  023%=      5-min Rain = 0
KFL1 241641Z 24008KT 14/M06 A3006 RMK A01 T01441058  RH  024%=      5-min Rain = 0
KFL1 241642Z 24010KT 14/M06 A3006 RMK A01 T01421057  RH  025%=      5-min Rain = 0
KFL1 241643Z 25011KT 14/M06 A3006 RMK A01 T01421055  RH  025%=      5-min Rain = 0
KFL1 241644Z 24009KT 14/M05 A3006 RMK A01 T01411050  RH  026%=      5-min Rain = 0
KFL1 241645Z 26006KT 14/M05 A3006 RMK A01 T01421049  RH  026%=      5-min Rain = 0
KFL1 241646Z 26009KT 14/M05 A3006 RMK A01 T01441050  RH  026%=      5-min Rain = 0
KFL1 241647Z 26011KT 15/M05 A3006 RMK A01 T01451050  RH  026%=      5-min Rain = 0
KFL1 241648Z 26009KT 14/M05 A3006 RMK A01 T01441050  RH  026%=      5-min Rain = 0
KFL1 241649Z 26009G14KT 14/M05 A3006 RMK A01 T01441046  RH  026%=      5-min Rain = 0
KFL1 241650Z 28010KT 14/M05 A3006 RMK A01 T01441052  RH  025%=      5-min Rain = 0
KFL1 241651Z 29009KT 14/M05 A3006 RMK A01 T01431047  RH  027%=      5-min Rain = 0
KFL1 241652Z 27009KT 15/M04 A3006 RMK A01 T01471037  RH  028%=      5-min Rain = 0
KFL1 241653Z 27011KT 15/M05 A3006 RMK A01 T01491048  RH  025%=      5-min Rain = 0
KFL1 241654Z 28010KT 15/M04 A3006 RMK A01 T01481044  RH  026%=      5-min Rain = 0
KFL1 241655Z 26013KT 15/M05 A3006 RMK A01 T01471045  RH  026%=      5-min Rain = 0
KFL1 241656Z 24013KT 15/M04 A3006 RMK A01 T01491036  RH  028%=      5-min Rain = 0
KFL1 241657Z 26011KT 15/M05 A3006 RMK A01 T01511047  RH  025%=      5-min Rain = 0
KFL1 241658Z 26008KT 15/M05 A3006 RMK A01 T01491048  RH  025%=      5-min Rain = 0
KFL1 241659Z 25012KT 15/M04 A3006 RMK A01 T01501043  RH  026%=      5-min Rain = 0
KFL1 241700Z 24008G13KT 15/M04 A3006 RMK A01 T01521036  RH  027%=      5-min Rain = 0
KFL1 241701Z 25009KT 15/M04 A3006 RMK A01 T01541037  RH  027%=      5-min Rain = 0
KFL1 241702Z 23009KT 16/M04 A3006 RMK A01 T01561040  RH  026%=      5-min Rain = 0
KFL1 241703Z 23013KT 16/M04 A3005 RMK A01 T01551038  RH  026%=      5-min Rain = 0
KFL1 241704Z 24012KT 16/M04 A3006 RMK A01 T01551037  RH  026%=      5-min Rain = 0
KFL1 241705Z 21011G16KT 16/M04 A3006 RMK A01 T01581040  RH  025%=      5-min Rain = 0
KFL1 241706Z 21014KT 16/M04 A3006 RMK A01 T01551042  RH  025%=      5-min Rain = 0
KFL1 241707Z 22008G13KT 15/M05 A3006 RMK A01 T01541051  RH  024%=      5-min Rain = 0
KFL1 241708Z 22005KT 15/M06 A3006 RMK A01 T01511055  RH  024%=      5-min Rain = 0
KFL1 241709Z 18005KT 15/M05 A3006 RMK A01 T01521049  RH  025%=      5-min Rain = 0
KFL1 241710Z 23007G12KT 16/M04 A3006 RMK A01 T01551038  RH  026%=      5-min Rain = 0
KFL1 241711Z 22012KT 16/M04 A3006 RMK A01 T01591040  RH  025%=      5-min Rain = 0
KFL1 241712Z 22016KT 16/M04 A3006 RMK A01 T01601043  RH  025%=      5-min Rain = 0
KFL1 241713Z 22013KT 16/M05 A3006 RMK A01 T01571050  RH  024%=      5-min Rain = 0
KFL1 241714Z 21011KT 16/M04 A3006 RMK A01 T01561041  RH  025%=      5-min Rain = 0
KFL1 241715Z 21009KT 16/M05 A3006 RMK A01 T01571047  RH  024%=      5-min Rain = 0
KFL1 241716Z 21006KT 16/M05 A3005 RMK A01 T01571050  RH  024%=      5-min Rain = 0
KFL1 241717Z 21008KT 16/M05 A3005 RMK A01 T01571049  RH  024%=      5-min Rain = 0
KFL1 241718Z 23010G17KT 16/M03 A3006 RMK A01 T01601033  RH  026%=      5-min Rain = 0
KFL1 241719Z 24010KT 16/M04 A3006 RMK A01 T01621039  RH  025%=      5-min Rain = 0
KFL1 241720Z 25012KT 16/M04 A3006 RMK A01 T01621039  RH  025%=      5-min Rain = 0
KFL1 241721Z 22010G15KT 16/M04 A3006 RMK A01 T01621043  RH  024%=      5-min Rain = 0
KFL1 241722Z 23014G22KT 16/M05 A3005 RMK A01 T01591047  RH  024%=      5-min Rain = 0
KFL1 241723Z 25012KT 16/M04 A3006 RMK A01 T01581044  RH  025%=      5-min Rain = 0
KFL1 241724Z 24010KT 16/M05 A3006 RMK A01 T01561049  RH  024%=      5-min Rain = 0
KFL1 241725Z 24009G14KT 15/M05 A3006 RMK A01 T01541051  RH  024%=      5-min Rain = 0
KFL1 241726Z 23008KT 15/M04 A3006 RMK A01 T01541042  RH  026%=      5-min Rain = 0
KFL1 241727Z 21009KT 16/M04 A3006 RMK A01 T01561044  RH  025%=      5-min Rain = 0
KFL1 241728Z 19009G15KT 16/M05 A3006 RMK A01 T01561048  RH  024%=      5-min Rain = 0
KFL1 241729Z 22011KT 16/M05 A3006 RMK A01 T01551051  RH  024%=      5-min Rain = 0
KFL1 241730Z 24006KT 15/M05 A3006 RMK A01 T01541050  RH  024%=      5-min Rain = 0
KFL1 241731Z 26011KT 15/M04 A3006 RMK A01 T01541039  RH  026%=      5-min Rain = 0
KFL1 241732Z 27014KT 16/M03 A3006 RMK A01 T01601034  RH  026%=      5-min Rain = 0
KFL1 241733Z 28012KT 16/M05 A3006 RMK A01 T01591046  RH  024%=      5-min Rain = 0
KFL1 241734Z 23007KT 16/M04 A3006 RMK A01 T01571037  RH  026%=      5-min Rain = 0
KFL1 241735Z 22005KT 16/M05 A3006 RMK A01 T01571049  RH  024%=      5-min Rain = 0
KFL1 241736Z 24004G9KT 16/M05 A3006 RMK A01 T01561046  RH  025%=      5-min Rain = 0
KFL1 241737Z 27015G20KT 16/M04 A3006 RMK A01 T01551044  RH  025%=      5-min Rain = 0
KFL1 241738Z 27014KT 16/M05 A3006 RMK A01 T01551048  RH  024%=      5-min Rain = 0
KFL1 241739Z 27015KT 15/M05 A3006 RMK A01 T01541046  RH  025%=      5-min Rain = 0
KFL1 241740Z 29013KT 16/M05 A3006 RMK A01 T01551045  RH  025%=      5-min Rain = 0
KFL1 241741Z 29009KT 16/M04 A3006 RMK A01 T01551044  RH  025%=      5-min Rain = 0
KFL1 241742Z 29009KT 16/M05 A3006 RMK A01 T01551049  RH  024%=      5-min Rain = 0
KFL1 241743Z 28008KT 16/M04 A3006 RMK A01 T01571043  RH  025%=      5-min Rain = 0
KFL1 241744Z 28006KT 16/M05 A3006 RMK A01 T01551054  RH  023%=      5-min Rain = 0
KFL1 241745Z 29007KT 15/M05 A3006 RMK A01 T01541047  RH  025%=      5-min Rain = 0
KFL1 241746Z 31008KT 16/M04 A3006 RMK A01 T01551040  RH  026%=      5-min Rain = 0
KFL1 241747Z 26007KT 16/M04 A3006 RMK A01 T01591042  RH  025%=      5-min Rain = 0
KFL1 241748Z 26007KT 16/M04 A3006 RMK A01 T01591038  RH  026%=      5-min Rain = 0
KFL1 241749Z 19005KT 16/M03 A3006 RMK A01 T01641029  RH  026%=      5-min Rain = 0
KFL1 241750Z 21006KT 17/M04 A3006 RMK A01 T01681041  RH  024%=      5-min Rain = 0
KFL1 241751Z 21008KT 17/M04 A3006 RMK A01 T01671043  RH  023%=      5-min Rain = 0
KFL1 241752Z 21009KT 17/M04 A3006 RMK A01 T01661038  RH  024%=      5-min Rain = 0
KFL1 241753Z 23009KT 17/M04 A3006 RMK A01 T01671040  RH  024%=      5-min Rain = 0
KFL1 241754Z 23011KT 17/M05 A3006 RMK A01 T01651052  RH  022%=      5-min Rain = 0
KFL1 241755Z 24012KT 16/M05 A3006 RMK A01 T01591052  RH  023%=      5-min Rain = 0
KFL1 241756Z 24010KT 16/M04 A3006 RMK A01 T01581042  RH  025%=      5-min Rain = 0
KFL1 241757Z 23012KT 16/M04 A3006 RMK A01 T01621041  RH  024%=      5-min Rain = 0
KFL1 241758Z 24007KT 16/M04 A3006 RMK A01 T01641044  RH  024%=      5-min Rain = 0
KFL1 241759Z 20010KT 16/M04 A3006 RMK A01 T01631043  RH  024%=      5-min Rain = 0
KFL1 241800Z 20009G15KT 16/M05 A3006 RMK A01 T01631051  RH  023%=      5-min Rain = 0
KFL1 241801Z 22008KT 16/M05 A3006 RMK A01 T01611049  RH  023%=      5-min Rain = 0
KFL1 241802Z 21014KT 16/M05 A3006 RMK A01 T01631048  RH  023%=      5-min Rain = 0
KFL1 241803Z 22010KT 16/M05 A3006 RMK A01 T01641047  RH  023%=      5-min Rain = 0
KFL1 241804Z 27014KT 17/M04 A3006 RMK A01 T01651043  RH  024%=      5-min Rain = 0
KFL1 241805Z 26015KT 16/M05 A3006 RMK A01 T01641050  RH  023%=      5-min Rain = 0
KFL1 241806Z 25013KT 16/M05 A3006 RMK A01 T01631050  RH  023%=      5-min Rain = 0
KFL1 241807Z 23011KT 16/M04 A3006 RMK A01 T01621044  RH  024%=      5-min Rain = 0
KFL1 241808Z 23011KT 16/M05 A3006 RMK A01 T01621046  RH  024%=      5-min Rain = 0
KFL1 241809Z 24010KT 16/M04 A3006 RMK A01 T01631044  RH  024%=      5-min Rain = 0
KFL1 241810Z 22006KT 16/M05 A3006 RMK A01 T01601053  RH  023%=      5-min Rain = 0
KFL1 241811Z 21006KT 16/M05 A3006 RMK A01 T01591051  RH  023%=      5-min Rain = 0
KFL1 241812Z 24009KT 16/M05 A3005 RMK A01 T01601050  RH  023%=      5-min Rain = 0
KFL1 241813Z 21013G20KT 16/M05 A3005 RMK A01 T01641047  RH  023%=      5-min Rain = 0
KFL1 241814Z 20013G18KT 17/M05 A3006 RMK A01 T01681049  RH  022%=      5-min Rain = 0
KFL1 241815Z 21011KT 17/M06 A3006 RMK A01 T01671055  RH  021%=      5-min Rain = 0
KFL1 241816Z 21011KT 17/M05 A3006 RMK A01 T01681054  RH  021%=      5-min Rain = 0
KFL1 241817Z 23009G14KT 17/M06 A3006 RMK A01 T01661055  RH  021%=      5-min Rain = 0
KFL1 241818Z 24009KT 17/M05 A3006 RMK A01 T01651047  RH  023%=      5-min Rain = 0
KFL1 241819Z 25009G15KT 17/M04 A3006 RMK A01 T01661043  RH  023%=      5-min Rain = 0
KFL1 241820Z 28007G12KT 17/M04 A3006 RMK A01 T01661044  RH  023%=      5-min Rain = 0
KFL1 241821Z 25009KT 17/M05 A3006 RMK A01 T01681049  RH  022%=      5-min Rain = 0
KFL1 241822Z 24010G16KT 17/M04 A3005 RMK A01 T01681041  RH  024%=      5-min Rain = 0
KFL1 241823Z 23013G19KT 17/M04 A3006 RMK A01 T01691038  RH  024%=      5-min Rain = 0
KFL1 241824Z 25015G23KT 17/M05 A3005 RMK A01 T01711049  RH  022%=      5-min Rain = 0
KFL1 241825Z 23014G20KT 17/M05 A3006 RMK A01 T01711051  RH  021%=      5-min Rain = 0
KFL1 241826Z 23011KT 17/M05 A3006 RMK A01 T01681053  RH  022%=      5-min Rain = 0
KFL1 241827Z 23010KT 17/M06 A3006 RMK A01 T01651059  RH  021%=      5-min Rain = 0
KFL1 241828Z 23008KT 16/M06 A3006 RMK A01 T01641056  RH  022%=      5-min Rain = 0
KFL1 241829Z 22011KT 16/M06 A3006 RMK A01 T01611059  RH  022%=      5-min Rain = 0
KFL1 241830Z 22012G17KT 16/M05 A3006 RMK A01 T01631053  RH  022%=      5-min Rain = 0
KFL1 241831Z 22010KT 16/M06 A3006 RMK A01 T01641057  RH  021%=      5-min Rain = 0
KFL1 241832Z 21008KT 16/M06 A3006 RMK A01 T01631055  RH  022%=      5-min Rain = 0
KFL1 241833Z 25008G13KT 16/M05 A3006 RMK A01 T01641054  RH  022%=      5-min Rain = 0
KFL1 241834Z 26007KT 16/M06 A3005 RMK A01 T01641064  RH  020%=      5-min Rain = 0
KFL1 241835Z 24006KT 16/M07 A3005 RMK A01 T01641065  RH  020%=      5-min Rain = 0
KFL1 241836Z 24005KT 17/M05 A3005 RMK A01 T01661054  RH  022%=      5-min Rain = 0
KFL1 241837Z 23011KT 17/M06 A3005 RMK A01 T01671055  RH  021%=      5-min Rain = 0
KFL1 241838Z 23012KT 17/M05 A3005 RMK A01 T01701053  RH  021%=      5-min Rain = 0
KFL1 241839Z 24009KT 17/M06 A3005 RMK A01 T01701059  RH  020%=      5-min Rain = 0
KFL1 241840Z 24013G19KT 17/M06 A3005 RMK A01 T01701057  RH  021%=      5-min Rain = 0
KFL1 241841Z 21011KT 17/M07 A3005 RMK A01 T01681065  RH  020%=      5-min Rain = 0
KFL1 241842Z 21011G17KT 17/M07 A3005 RMK A01 T01671066  RH  020%=      5-min Rain = 0
KFL1 241843Z 24015G21KT 17/M06 A3005 RMK A01 T01661058  RH  021%=      5-min Rain = 0
KFL1 241844Z 25012G18KT 17/M05 A3005 RMK A01 T01691049  RH  022%=      5-min Rain = 0
KFL1 241845Z 23010KT 17/M04 A3005 RMK A01 T01711042  RH  023%=      5-min Rain = 0
KFL1 241846Z 23014KT 17/M06 A3005 RMK A01 T01711055  RH  021%=      5-min Rain = 0
KFL1 241847Z 23009G17KT 17/M05 A3005 RMK A01 T01731051  RH  021%=      5-min Rain = 0
KFL1 241848Z 24011G16KT 18/M05 A3005 RMK A01 T01751047  RH  022%=      5-min Rain = 0
KFL1 241849Z 26015G21KT 17/M05 A3005 RMK A01 T01741052  RH  021%=      5-min Rain = 0
KFL1 241850Z 25014G19KT 17/M07 A3005 RMK A01 T01691066  RH  019%=      5-min Rain = 0
KFL1 241851Z 26012KT 17/M06 A3005 RMK A01 T01681064  RH  020%=      5-min Rain = 0
KFL1 241852Z 27009KT 17/M06 A3005 RMK A01 T01651064  RH  020%=      5-min Rain = 0
KFL1 241853Z 22008G14KT 17/M06 A3005 RMK A01 T01651055  RH  022%=      5-min Rain = 0
KFL1 241854Z 24011KT 17/M06 A3005 RMK A01 T01671060  RH  021%=      5-min Rain = 0
KFL1 241855Z 23012G17KT 17/M07 A3005 RMK A01 T01651072  RH  019%=      5-min Rain = 0
KFL1 241856Z 23012KT 16/M07 A3005 RMK A01 T01621069  RH  020%=      5-min Rain = 0
KFL1 241857Z 20013KT 16/M06 A3005 RMK A01 T01641058  RH  021%=      5-min Rain = 0
KFL1 241858Z 20013KT 17/M06 A3005 RMK A01 T01661060  RH  021%=      5-min Rain = 0
KFL1 241859Z 19010G15KT 17/M06 A3005 RMK A01 T01681059  RH  021%=      5-min Rain = 0
KFL1 241900Z 23011KT 17/M04 A3005 RMK A01 T01711044  RH  023%=      5-min Rain = 0
KFL1 241901Z 24010G17KT 18/M03 A3005 RMK A01 T01761033  RH  024%=      5-min Rain = 0
KFL1 241902Z 24011G16KT 18/M06 A3004 RMK A01 T01791057  RH  020%=      5-min Rain = 0
KFL1 241903Z 22013KT 18/M07 A3004 RMK A01 T01751066  RH  019%=      5-min Rain = 0
KFL1 241904Z 22013G18KT 17/M07 A3004 RMK A01 T01701070  RH  019%=      5-min Rain = 0
KFL1 241905Z 23010KT 17/M05 A3004 RMK A01 T01711050  RH  022%=      5-min Rain = 0
KFL1 241906Z 22011KT 17/M06 A3004 RMK A01 T01731059  RH  020%=      5-min Rain = 0
KFL1 241907Z 23014G20KT 17/M06 A3004 RMK A01 T01731061  RH  020%=      5-min Rain = 0
KFL1 241908Z 22017KT 17/M06 A3005 RMK A01 T01711059  RH  020%=      5-min Rain = 0
KFL1 241909Z 21014G19KT 17/M06 A3005 RMK A01 T01701060  RH  020%=      5-min Rain = 0
KFL1 241910Z 21012KT 17/M06 A3005 RMK A01 T01691060  RH  020%=      5-min Rain = 0
KFL1 241911Z 21009G16KT 17/M06 A3004 RMK A01 T01691061  RH  020%=      5-min Rain = 0
KFL1 241912Z 22013G19KT 17/M05 A3004 RMK A01 T01711051  RH  021%=      5-min Rain = 0
KFL1 241913Z 20016G21KT 17/M06 A3004 RMK A01 T01721057  RH  020%=      5-min Rain = 0
KFL1 241914Z 23017G22KT 17/M06 A3004 RMK A01 T01721056  RH  021%=      5-min Rain = 0
KFL1 241915Z 24012KT 17/M05 A3004 RMK A01 T01721053  RH  021%=      5-min Rain = 0
KFL1 241916Z 22012G17KT 17/M05 A3004 RMK A01 T01741049  RH  021%=      5-min Rain = 0
KFL1 241917Z 22011KT 17/M05 A3004 RMK A01 T01741049  RH  021%=      5-min Rain = 0
KFL1 241918Z 23011KT 17/M06 A3005 RMK A01 T01731055  RH  020%=      5-min Rain = 0
KFL1 241919Z 25013KT 17/M06 A3004 RMK A01 T01711061  RH  020%=      5-min Rain = 0
KFL1 241920Z 27012KT 17/M06 A3004 RMK A01 T01701062  RH  020%=      5-min Rain = 0
KFL1 241921Z 27009KT 17/M06 A3004 RMK A01 T01671061  RH  020%=      5-min Rain = 0
KFL1 241922Z 22009G16KT 17/M04 A3004 RMK A01 T01701044  RH  023%=      5-min Rain = 0
KFL1 241923Z 21015KT 18/M05 A3004 RMK A01 T01751050  RH  021%=      5-min Rain = 0
KFL1 241924Z 20007G14KT 17/M07 A3005 RMK A01 T01731065  RH  019%=      5-min Rain = 0
KFL1 241925Z 22008KT 17/M06 A3004 RMK A01 T01711060  RH  020%=      5-min Rain = 0
KFL1 241926Z 24013G18KT 17/M05 A3004 RMK A01 T01721051  RH  021%=      5-min Rain = 0
KFL1 241927Z 24013KT 17/M05 A3004 RMK A01 T01731053  RH  021%=      5-min Rain = 0
KFL1 241928Z 25010KT 17/M06 A3004 RMK A01 T01711063  RH  020%=      5-min Rain = 0
KFL1 241929Z 24008G13KT 16/M07 A3004 RMK A01 T01641065  RH  020%=      5-min Rain = 0
KFL1 241930Z 24008G14KT 16/M07 A3004 RMK A01 T01621067  RH  020%=      5-min Rain = 0
KFL1 241931Z 22013G23KT 16/M05 A3004 RMK A01 T01641051  RH  022%=      5-min Rain = 0
KFL1 241932Z 23020KT 17/M05 A3004 RMK A01 T01681052  RH  022%=      5-min Rain = 0
KFL1 241933Z 24013G18KT 17/M06 A3004 RMK A01 T01691060  RH  020%=      5-min Rain = 0
KFL1 241934Z 25013KT 17/M07 A3004 RMK A01 T01671066  RH  020%=      5-min Rain = 0
KFL1 241935Z 27013KT 16/M07 A3004 RMK A01 T01641073  RH  019%=      5-min Rain = 0
KFL1 241936Z 27012KT 17/M06 A3004 RMK A01 T01651058  RH  021%=      5-min Rain = 0
KFL1 241937Z 24009KT 17/M05 A3004 RMK A01 T01711053  RH  021%=      5-min Rain = 0
KFL1 241938Z 23009KT 17/M06 A3004 RMK A01 T01711058  RH  020%=      5-min Rain = 0
KFL1 241939Z 24010KT 17/M06 A3004 RMK A01 T01711059  RH  020%=      5-min Rain = 0
KFL1 241940Z 27010KT 17/M06 A3004 RMK A01 T01701059  RH  020%=      5-min Rain = 0
KFL1 241941Z 29007G13KT 17/M05 A3004 RMK A01 T01701052  RH  022%=      5-min Rain = 0
KFL1 241942Z 31005G12KT 17/M06 A3004 RMK A01 T01711055  RH  021%=      5-min Rain = 0
KFL1 241943Z 33005G10KT 16/M06 A3004 RMK A01 T01631057  RH  022%=      5-min Rain = 0
KFL1 241944Z 33012KT 16/M05 A3004 RMK A01 T01601049  RH  023%=      5-min Rain = 0
KFL1 241945Z 32011KT 16/M05 A3004 RMK A01 T01571052  RH  023%=      5-min Rain = 0
KFL1 241946Z 33013KT 16/M05 A3004 RMK A01 T01561052  RH  023%=      5-min Rain = 0
KFL1 241947Z 31011KT 16/M05 A3004 RMK A01 T01561049  RH  024%=      5-min Rain = 0
KFL1 241948Z 30007KT 16/M06 A3004 RMK A01 T01551059  RH  022%=      5-min Rain = 0
KFL1 241949Z 30011KT 15/M06 A3004 RMK A01 T01511058  RH  023%=      5-min Rain = 0
KFL1 241950Z 29010KT 15/M06 A3004 RMK A01 T01491055  RH  024%=      5-min Rain = 0
KFL1 241951Z 27011KT 16/M05 A3004 RMK A01 T01551048  RH  024%=      5-min Rain = 0
KFL1 241952Z 27008G13KT 16/M05 A3004 RMK A01 T01581051  RH  023%=      5-min Rain = 0
KFL1 241953Z 23004KT 16/M04 A3004 RMK A01 T01621041  RH  025%=      5-min Rain = 0
KFL1 241954Z 26011G17KT 17/M05 A3003 RMK A01 T01691045  RH  023%=      5-min Rain = 0
KFL1 241955Z 27004G9KT 17/M05 A3004 RMK A01 T01691054  RH  021%=      5-min Rain = 0
KFL1 241956Z 23005KT 17/M05 A3004 RMK A01 T01671050  RH  022%=      5-min Rain = 0
KFL1 241957Z 22006KT 17/M04 A3004 RMK A01 T01691039  RH  024%=      5-min Rain = 0
KFL1 241958Z 28008G15KT 17/M04 A3003 RMK A01 T01731040  RH  023%=      5-min Rain = 0
KFL1 241959Z 30016KT 18/M04 A3003 RMK A01 T01771041  RH  022%=      5-min Rain = 0
KFL1 242000Z 30012KT 18/M05 A3004 RMK A01 T01761050  RH  021%=      5-min Rain = 0
KFL1 242001Z 30008KT 17/M05 A3003 RMK A01 T01731054  RH  021%=      5-min Rain = 0
KFL1 242002Z 30009KT 17/M05 A3003 RMK A01 T01721051  RH  021%=      5-min Rain = 0
KFL1 242003Z 33010G16KT 17/M05 A3003 RMK A01 T01731051  RH  021%=      5-min Rain = 0
KFL1 242004Z 32014KT 17/M04 A3003 RMK A01 T01711044  RH  023%=      5-min Rain = 0
KFL1 242005Z 33010KT 17/M04 A3003 RMK A01 T01731043  RH  023%=      5-min Rain = 0
KFL1 242006Z 29008KT 17/M05 A3003 RMK A01 T01741047  RH  022%=      5-min Rain = 0
KFL1 242007Z 25010G15KT 17/M05 A3004 RMK A01 T01731050  RH  021%=      5-min Rain = 0
KFL1 242008Z 24011KT 17/M05 A3003 RMK A01 T01721050  RH  022%=      5-min Rain = 0
KFL1 242009Z 26014KT 17/M05 A3003 RMK A01 T01701053  RH  021%=      5-min Rain = 0
KFL1 242010Z 26020KT 17/M05 A3003 RMK A01 T01701050  RH  022%=      5-min Rain = 0
KFL1 242011Z 29018G24KT 17/M05 A3003 RMK A01 T01711050  RH  022%=      5-min Rain = 0
KFL1 242012Z 28018KT 17/M05 A3004 RMK A01 T01721049  RH  022%=      5-min Rain = 0
KFL1 242013Z 28014KT 17/M06 A3004 RMK A01 T01691059  RH  020%=      5-min Rain = 0
KFL1 242014Z 29011KT 17/M06 A3004 RMK A01 T01671057  RH  021%=      5-min Rain = 0
KFL1 242015Z 29008KT 17/M05 A3004 RMK A01 T01661052  RH  022%=      5-min Rain = 0
KFL1 242016Z 29011G16KT 17/M05 A3004 RMK A01 T01701045  RH  023%=      5-min Rain = 0
KFL1 242017Z 29014KT 17/M05 A3003 RMK A01 T01721046  RH  022%=      5-min Rain = 0
KFL1 242018Z 29016KT 17/M05 A3004 RMK A01 T01721050  RH  021%=      5-min Rain = 0
KFL1 242019Z 28012KT 17/M05 A3004 RMK A01 T01721051  RH  021%=      5-min Rain = 0
KFL1 242020Z 27011KT 17/M05 A3003 RMK A01 T01731054  RH  021%=      5-min Rain = 0
KFL1 242021Z 31011KT 17/M06 A3003 RMK A01 T01691055  RH  021%=      5-min Rain = 0
KFL1 242022Z 31010KT 17/M04 A3003 RMK A01 T01701044  RH  023%=      5-min Rain = 0
KFL1 242023Z 31007KT 17/M05 A3003 RMK A01 T01711054  RH  021%=      5-min Rain = 0
KFL1 242024Z 27011KT 17/M05 A3003 RMK A01 T01671051  RH  022%=      5-min Rain = 0
KFL1 242025Z 27012KT 17/M04 A3003 RMK A01 T01721039  RH  023%=      5-min Rain = 0
KFL1 242026Z 28011G16KT 18/M05 A3003 RMK A01 T01751045  RH  022%=      5-min Rain = 0
KFL1 242027Z 27011KT 18/M05 A3004 RMK A01 T01751053  RH  021%=      5-min Rain = 0
KFL1 242028Z 29011KT 17/M05 A3003 RMK A01 T01731051  RH  021%=      5-min Rain = 0
KFL1 242029Z 28012G17KT 18/M04 A3003 RMK A01 T01761043  RH  022%=      5-min Rain = 0
KFL1 242030Z 27016G21KT 17/M06 A3003 RMK A01 T01741058  RH  020%=      5-min Rain = 0
KFL1 242031Z 26018G23KT 17/M06 A3003 RMK A01 T01701060  RH  020%=      5-min Rain = 0
KFL1 242032Z 27019KT 17/M06 A3003 RMK A01 T01671062  RH  020%=      5-min Rain = 0
KFL1 242033Z 27019KT 17/M06 A3003 RMK A01 T01651060  RH  021%=      5-min Rain = 0
KFL1 242034Z 27020KT 17/M06 A3004 RMK A01 T01671055  RH  021%=      5-min Rain = 0
KFL1 242035Z 27016KT 17/M06 A3004 RMK A01 T01651063  RH  020%=      5-min Rain = 0
KFL1 242036Z 28011KT 16/M07 A3004 RMK A01 T01621065  RH  020%=      5-min Rain = 0
KFL1 242037Z 27008KT 16/M06 A3004 RMK A01 T01621062  RH  021%=      5-min Rain = 0
KFL1 242038Z 25006KT 16/M06 A3004 RMK A01 T01631062  RH  021%=      5-min Rain = 0
KFL1 242039Z 30010KT 16/M06 A3004 RMK A01 T01631057  RH  022%=      5-min Rain = 0
KFL1 242040Z 29010KT 17/M05 A3004 RMK A01 T01681049  RH  022%=      5-min Rain = 0
KFL1 242041Z 31012G21KT 17/M06 A3004 RMK A01 T01701055  RH  021%=      5-min Rain = 0
KFL1 242042Z 26012G18KT 17/M05 A3004 RMK A01 T01731054  RH  021%=      5-min Rain = 0
KFL1 242043Z 23013KT 18/M06 A3003 RMK A01 T01751056  RH  020%=      5-min Rain = 0
KFL1 242044Z 21009G15KT 17/M07 A3003 RMK A01 T01701068  RH  019%=      5-min Rain = 0
KFL1 242045Z 25008KT 17/M06 A3004 RMK A01 T01671060  RH  021%=      5-min Rain = 0
KFL1 242046Z 26012KT 17/M05 A3004 RMK A01 T01691050  RH  022%=      5-min Rain = 0
KFL1 242047Z 28013KT 17/M06 A3004 RMK A01 T01721058  RH  020%=      5-min Rain = 0
KFL1 242048Z 31014KT 17/M06 A3003 RMK A01 T01711058  RH  020%=      5-min Rain = 0
KFL1 242049Z 27015KT 17/M06 A3003 RMK A01 T01731056  RH  021%=      5-min Rain = 0
KFL1 242050Z 26016KT 17/M06 A3003 RMK A01 T01721063  RH  020%=      5-min Rain = 0
KFL1 242051Z 25014KT 17/M07 A3004 RMK A01 T01671069  RH  019%=      5-min Rain = 0
KFL1 242052Z 24013KT 17/M07 A3004 RMK A01 T01651066  RH  020%=      5-min Rain = 0
KFL1 242053Z 26012G17KT 16/M07 A3004 RMK A01 T01641071  RH  019%=      5-min Rain = 0
KFL1 242054Z 25009KT 16/M06 A3004 RMK A01 T01641058  RH  021%=      5-min Rain = 0
KFL1 242055Z 26009KT 17/M05 A3004 RMK A01 T01701052  RH  022%=      5-min Rain = 0
KFL1 242056Z 26011G17KT 17/M06 A3004 RMK A01 T01721061  RH  020%=      5-min Rain = 0
KFL1 242057Z 27011G17KT 17/M07 A3004 RMK A01 T01701065  RH  019%=      5-min Rain = 0
KFL1 242058Z 28007KT 17/M07 A3004 RMK A01 T01691067  RH  019%=      5-min Rain = 0
KFL1 242059Z 27009G14KT 17/M07 A3004 RMK A01 T01671067  RH  020%=      5-min Rain = 0
KFL1 242100Z 29014KT 17/M07 A3004 RMK A01 T01671065  RH  020%=      5-min Rain = 0
KFL1 242101Z 29012KT 17/M07 A3004 RMK A01 T01691067  RH  019%=      5-min Rain = 0
KFL1 242102Z 27012G22KT 17/M06 A3004 RMK A01 T01661064  RH  020%=      5-min Rain = 0
KFL1 242103Z 28014KT 17/M07 A3004 RMK A01 T01681067  RH  019%=      5-min Rain = 0
KFL1 242104Z 29014KT 17/M07 A3004 RMK A01 T01671068  RH  019%=      5-min Rain = 0
KFL1 242105Z 29016KT 17/M06 A3004 RMK A01 T01691059  RH  021%=      5-min Rain = 0
KFL1 242106Z 28015KT 17/M06 A3004 RMK A01 T01731062  RH  020%=      5-min Rain = 0
KFL1 242107Z 28014KT 18/M05 A3004 RMK A01 T01761051  RH  021%=      5-min Rain = 0
KFL1 242108Z 29014KT 18/M07 A3004 RMK A01 T01771070  RH  018%=      5-min Rain = 0
KFL1 242109Z 29009KT 17/M08 A3004 RMK A01 T01721078  RH  017%=      5-min Rain = 0
KFL1 242110Z 29013G19KT 17/M08 A3004 RMK A01 T01681075  RH  018%=      5-min Rain = 0
KFL1 242111Z 28013G19KT 17/M07 A3004 RMK A01 T01691073  RH  018%=      5-min Rain = 0
KFL1 242112Z 29012KT 17/M08 A3004 RMK A01 T01701075  RH  018%=      5-min Rain = 0
KFL1 242113Z 28013KT 17/M07 A3004 RMK A01 T01691072  RH  018%=      5-min Rain = 0
KFL1 242114Z 30016KT 17/M07 A3004 RMK A01 T01711071  RH  018%=      5-min Rain = 0
KFL1 242115Z 29007KT 17/M08 A3004 RMK A01 T01671075  RH  018%=      5-min Rain = 0
KFL1 242116Z 30010KT 17/M06 A3004 RMK A01 T01681064  RH  020%=      5-min Rain = 0
KFL1 242117Z 31010KT 17/M07 A3004 RMK A01 T01711065  RH  019%=      5-min Rain = 0
KFL1 242118Z 32012G17KT 17/M06 A3004 RMK A01 T01731064  RH  019%=      5-min Rain = 0
KFL1 242119Z 32012KT 17/M07 A3004 RMK A01 T01731068  RH  019%=      5-min Rain = 0
KFL1 242120Z 34011KT 17/M08 A3003 RMK A01 T01711076  RH  018%=      5-min Rain = 0
KFL1 242121Z 31010KT 17/M07 A3004 RMK A01 T01701074  RH  018%=      5-min Rain = 0
KFL1 242122Z 29013G18KT 17/M07 A3004 RMK A01 T01711065  RH  019%=      5-min Rain = 0
KFL1 242123Z 30013KT 17/M07 A3004 RMK A01 T01721070  RH  018%=      5-min Rain = 0
KFL1 242124Z 29016G21KT 18/M06 A3004 RMK A01 T01771058  RH  020%=      5-min Rain = 0
KFL1 242125Z 29014KT 18/M07 A3004 RMK A01 T01771066  RH  018%=      5-min Rain = 0
KFL1 242126Z 29013KT 18/M07 A3004 RMK A01 T01751070  RH  018%=      5-min Rain = 0
KFL1 242127Z 29013KT 17/M06 A3004 RMK A01 T01731063  RH  019%=      5-min Rain = 0
KFL1 242128Z 28013KT 17/M07 A3003 RMK A01 T01711069  RH  019%=      5-min Rain = 0
KFL1 242129Z 30014KT 17/M07 A3003 RMK A01 T01681070  RH  019%=      5-min Rain = 0
KFL1 242130Z 31012KT 17/M05 A3003 RMK A01 T01701051  RH  022%=      5-min Rain = 0
KFL1 242131Z 30013KT 18/M05 A3003 RMK A01 T01751051  RH  021%=      5-min Rain = 0
KFL1 242132Z 27013KT 18/M05 A3003 RMK A01 T01791052  RH  020%=      5-min Rain = 0
KFL1 242133Z 26016KT 18/M06 A3003 RMK A01 T01781060  RH  019%=      5-min Rain = 0
KFL1 242134Z 26018KT 17/M07 A3003 RMK A01 T01731066  RH  019%=      5-min Rain = 0
KFL1 242135Z 27015KT 17/M07 A3003 RMK A01 T01711071  RH  018%=      5-min Rain = 0
KFL1 242136Z 28011KT 17/M08 A3003 RMK A01 T01671076  RH  018%=      5-min Rain = 0
KFL1 242137Z 27014KT 16/M08 A3003 RMK A01 T01641079  RH  018%=      5-min Rain = 0
KFL1 242138Z 27009KT 16/M08 A3003 RMK A01 T01621079  RH  018%=      5-min Rain = 0
KFL1 242139Z 26006G11KT 16/M06 A3003 RMK A01 T01641063  RH  020%=      5-min Rain = 0
KFL1 242140Z 27007KT 17/M06 A3003 RMK A01 T01681063  RH  020%=      5-min Rain = 0
KFL1 242141Z 31007G12KT 17/M06 A3003 RMK A01 T01721057  RH  020%=      5-min Rain = 0
KFL1 242142Z 32011KT 17/M06 A3003 RMK A01 T01731056  RH  020%=      5-min Rain = 0
KFL1 242143Z 31012KT 17/M07 A3003 RMK A01 T01731069  RH  019%=      5-min Rain = 0
KFL1 242144Z 33011KT 17/M06 A3003 RMK A01 T01711063  RH  020%=      5-min Rain = 0
KFL1 242145Z 34008KT 17/M06 A3003 RMK A01 T01721055  RH  021%=      5-min Rain = 0
KFL1 242146Z 31009KT 18/M06 A3003 RMK A01 T01751060  RH  020%=      5-min Rain = 0
KFL1 242147Z 29014KT 18/M06 A3003 RMK A01 T01761061  RH  019%=      5-min Rain = 0
KFL1 242148Z 29015KT 17/M07 A3003 RMK A01 T01741072  RH  018%=      5-min Rain = 0
KFL1 242149Z 25013KT 17/M07 A3003 RMK A01 T01741066  RH  019%=      5-min Rain = 0
KFL1 242150Z 28011KT 17/M07 A3003 RMK A01 T01711073  RH  018%=      5-min Rain = 0
KFL1 242151Z 30013KT 17/M07 A3003 RMK A01 T01711065  RH  019%=      5-min Rain = 0
KFL1 242152Z 29011G17KT 17/M07 A3003 RMK A01 T01711074  RH  018%=      5-min Rain = 0
KFL1 242153Z 32008KT 17/M07 A3003 RMK A01 T01701069  RH  019%=      5-min Rain = 0
KFL1 242154Z 31010G15KT 17/M07 A3003 RMK A01 T01701066  RH  019%=      5-min Rain = 0
KFL1 242155Z 30016KT 17/M07 A3003 RMK A01 T01711073  RH  018%=      5-min Rain = 0
KFL1 242156Z 29015KT 17/M08 A3003 RMK A01 T01681079  RH  018%=      5-min Rain = 0
KFL1 242157Z 30015KT 17/M08 A3003 RMK A01 T01661079  RH  018%=      5-min Rain = 0
KFL1 242158Z 32011KT 17/M08 A3003 RMK A01 T01671081  RH  018%=      5-min Rain = 0
KFL1 242159Z 31014KT 17/M08 A3003 RMK A01 T01671076  RH  018%=      5-min Rain = 0
KFL1 242200Z 32012KT 17/M07 A3003 RMK A01 T01681070  RH  019%=      5-min Rain = 0
KFL1 242201Z 30011KT 17/M07 A3003 RMK A01 T01711067  RH  019%=      5-min Rain = 0
KFL1 242202Z 29016KT 17/M08 A3003 RMK A01 T01731075  RH  018%=      5-min Rain = 0
KFL1 242203Z 30017G23KT 17/M08 A3003 RMK A01 T01701084  RH  017%=      5-min Rain = 0
KFL1 242204Z 29017KT 17/M08 A3003 RMK A01 T01691079  RH  018%=      5-min Rain = 0
KFL1 242205Z 29011G16KT 17/M09 A3003 RMK A01 T01681087  RH  017%=      5-min Rain = 0
KFL1 242206Z 30015KT 17/M09 A3003 RMK A01 T01661087  RH  017%=      5-min Rain = 0
KFL1 242207Z 30017KT 17/M09 A3003 RMK A01 T01661085  RH  017%=      5-min Rain = 0
KFL1 242208Z 29013KT 17/M09 A3003 RMK A01 T01651089  RH  017%=      5-min Rain = 0
KFL1 242209Z 30012KT 17/M09 A3003 RMK A01 T01651090  RH  017%=      5-min Rain = 0
KFL1 242210Z 30013KT 17/M09 A3003 RMK A01 T01651093  RH  016%=      5-min Rain = 0
KFL1 242211Z 30014KT 16/M10 A3003 RMK A01 T01641095  RH  016%=      5-min Rain = 0
KFL1 242212Z 29013G19KT 16/M10 A3003 RMK A01 T01641098  RH  016%=      5-min Rain = 0
KFL1 242213Z 30016KT 16/M09 A3003 RMK A01 T01601094  RH  016%=      5-min Rain = 0
KFL1 242214Z 31014KT 16/M09 A3003 RMK A01 T01611089  RH  017%=      5-min Rain = 0
KFL1 242215Z 32010KT 16/M09 A3003 RMK A01 T01641091  RH  017%=      5-min Rain = 0
KFL1 242216Z 31010KT 16/M08 A3003 RMK A01 T01631083  RH  018%=      5-min Rain = 0
KFL1 242217Z 28015KT 17/M07 A3003 RMK A01 T01671072  RH  019%=      5-min Rain = 0
KFL1 242218Z 30014KT 17/M09 A3003 RMK A01 T01691086  RH  017%=      5-min Rain = 0
KFL1 242219Z 29015G20KT 17/M08 A3003 RMK A01 T01691083  RH  017%=      5-min Rain = 0
KFL1 242220Z 27011KT 17/M09 A3003 RMK A01 T01681088  RH  016%=      5-min Rain = 0
KFL1 242221Z 30011KT 17/M09 A3003 RMK A01 T01701087  RH  016%=      5-min Rain = 0
KFL1 242222Z 32016KT 17/M08 A3003 RMK A01 T01661083  RH  017%=      5-min Rain = 0
KFL1 242223Z 32016KT 17/M08 A3003 RMK A01 T01681084  RH  017%=      5-min Rain = 0
KFL1 242224Z 31015G20KT 17/M08 A3003 RMK A01 T01691077  RH  018%=      5-min Rain = 0
KFL1 242225Z 30013KT 17/M07 A3003 RMK A01 T01731072  RH  018%=      5-min Rain = 0
KFL1 242226Z 31013KT 17/M08 A3003 RMK A01 T01731081  RH  017%=      5-min Rain = 0
KFL1 242227Z 31014KT 17/M08 A3003 RMK A01 T01721083  RH  017%=      5-min Rain = 0
KFL1 242228Z 28015G21KT 17/M08 A3003 RMK A01 T01711084  RH  017%=      5-min Rain = 0
KFL1 242229Z 29010G15KT 17/M09 A3003 RMK A01 T01691091  RH  016%=      5-min Rain = 0
KFL1 242230Z 28009KT 17/M09 A3003 RMK A01 T01661092  RH  016%=      5-min Rain = 0
KFL1 242231Z 30009KT 17/M09 A3003 RMK A01 T01671085  RH  017%=      5-min Rain = 0
KFL1 242232Z 30011G16KT 17/M08 A3003 RMK A01 T01691081  RH  017%=      5-min Rain = 0
KFL1 242233Z 28013KT 17/M09 A3002 RMK A01 T01691089  RH  016%=      5-min Rain = 0
KFL1 242234Z 29016KT 17/M10 A3002 RMK A01 T01661097  RH  016%=      5-min Rain = 0
KFL1 242235Z 31016KT 17/M09 A3003 RMK A01 T01661091  RH  016%=      5-min Rain = 0
KFL1 242236Z 31015KT 17/M09 A3002 RMK A01 T01671093  RH  016%=      5-min Rain = 0
KFL1 242237Z 30015KT 17/M09 A3003 RMK A01 T01691087  RH  016%=      5-min Rain = 0
KFL1 242238Z 31013KT 17/M08 A3003 RMK A01 T01701083  RH  017%=      5-min Rain = 0
KFL1 242239Z 28014KT 17/M08 A3003 RMK A01 T01731082  RH  017%=      5-min Rain = 0
KFL1 242240Z 30014KT 17/M10 A3003 RMK A01 T01711101  RH  015%=      5-min Rain = 0
KFL1 242241Z 31014KT 17/M10 A3003 RMK A01 T01691095  RH  016%=      5-min Rain = 0
KFL1 242242Z 31012KT 17/M10 A3003 RMK A01 T01651098  RH  016%=      5-min Rain = 0
KFL1 242243Z 32010KT 16/M10 A3003 RMK A01 T01641102  RH  015%=      5-min Rain = 0
KFL1 242244Z 30013KT 16/M10 A3003 RMK A01 T01631100  RH  016%=      5-min Rain = 0
KFL1 242245Z 30016KT 16/M09 A3003 RMK A01 T01641094  RH  016%=      5-min Rain = 0
KFL1 242246Z 29015KT 17/M09 A3003 RMK A01 T01661088  RH  017%=      5-min Rain = 0
KFL1 242247Z 29011KT 17/M09 A3003 RMK A01 T01681085  RH  017%=      5-min Rain = 0
KFL1 242248Z 27010KT 17/M10 A3003 RMK A01 T01681096  RH  015%=      5-min Rain = 0
KFL1 242249Z 28014KT 17/M10 A3003 RMK A01 T01661098  RH  015%=      5-min Rain = 0
KFL1 242250Z 27013KT 16/M10 A3003 RMK A01 T01641098  RH  016%=      5-min Rain = 0
KFL1 242251Z 26008KT 16/M10 A3003 RMK A01 T01641103  RH  015%=      5-min Rain = 0
KFL1 242252Z 26008KT 16/M10 A3003 RMK A01 T01641096  RH  016%=      5-min Rain = 0
KFL1 242253Z 27009KT 17/M09 A3003 RMK A01 T01661090  RH  016%=      5-min Rain = 0
KFL1 242254Z 28008KT 16/M09 A3003 RMK A01 T01641092  RH  016%=      5-min Rain = 0
KFL1 242255Z 28014KT 17/M09 A3003 RMK A01 T01661087  RH  017%=      5-min Rain = 0
KFL1 242256Z 30016KT 17/M09 A3003 RMK A01 T01651093  RH  016%=      5-min Rain = 0
KFL1 242257Z 30012KT 16/M09 A3003 RMK A01 T01621091  RH  017%=      5-min Rain = 0
KFL1 242258Z 30014G19KT 16/M09 A3003 RMK A01 T01641092  RH  016%=      5-min Rain = 0
KFL1 242259Z 29014KT 16/M10 A3003 RMK A01 T01641097  RH  016%=      5-min Rain = 0
KFL1 242300Z 30014KT 16/M10 A3003 RMK A01 T01631099  RH  016%=      5-min Rain = 0
KFL1 242301Z 31015G20KT 16/M10 A3003 RMK A01 T01611103  RH  015%=      5-min Rain = 0
KFL1 242302Z 30014KT 16/M10 A3003 RMK A01 T01611097  RH  016%=      5-min Rain = 0
KFL1 242303Z 30012KT 16/M10 A3003 RMK A01 T01611100  RH  016%=      5-min Rain = 0
KFL1 242304Z 30010KT 16/M10 A3003 RMK A01 T01611095  RH  016%=      5-min Rain = 0
KFL1 242305Z 30015G20KT 17/M09 A3003 RMK A01 T01651086  RH  017%=      5-min Rain = 0
KFL1 242306Z 30016KT 17/M09 A3003 RMK A01 T01661090  RH  017%=      5-min Rain = 0
KFL1 242307Z 29016KT 17/M09 A3003 RMK A01 T01651088  RH  017%=      5-min Rain = 0
KFL1 242308Z 29015KT 16/M09 A3003 RMK A01 T01641091  RH  017%=      5-min Rain = 0
KFL1 242309Z 30015KT 16/M10 A3003 RMK A01 T01621100  RH  016%=      5-min Rain = 0
KFL1 242310Z 29010KT 16/M10 A3003 RMK A01 T01601098  RH  016%=      5-min Rain = 0
KFL1 242311Z 27012KT 16/M09 A3003 RMK A01 T01611094  RH  017%=      5-min Rain = 0
KFL1 242312Z 28010KT 16/M09 A3003 RMK A01 T01591093  RH  017%=      5-min Rain = 0
KFL1 242313Z 28009KT 16/M09 A3003 RMK A01 T01591094  RH  017%=      5-min Rain = 0
KFL1 242314Z 27011KT 16/M09 A3003 RMK A01 T01611085  RH  018%=      5-min Rain = 0
KFL1 242315Z 27013G19KT 16/M09 A3003 RMK A01 T01631087  RH  017%=      5-min Rain = 0
KFL1 242316Z 27014G19KT 16/M09 A3003 RMK A01 T01621091  RH  017%=      5-min Rain = 0
KFL1 242317Z 26014G19KT 16/M09 A3003 RMK A01 T01621092  RH  017%=      5-min Rain = 0
KFL1 242318Z 27013KT 16/M09 A3003 RMK A01 T01601092  RH  017%=      5-min Rain = 0
KFL1 242319Z 28012KT 16/M10 A3003 RMK A01 T01601097  RH  016%=      5-min Rain = 0
KFL1 242320Z 27015KT 16/M10 A3003 RMK A01 T01601101  RH  016%=      5-min Rain = 0
KFL1 242321Z 28017KT 16/M10 A3003 RMK A01 T01611102  RH  015%=      5-min Rain = 0
KFL1 242322Z 30016KT 16/M10 A3003 RMK A01 T01611096  RH  016%=      5-min Rain = 0
KFL1 242323Z 29014KT 16/M10 A3003 RMK A01 T01601097  RH  016%=      5-min Rain = 0
KFL1 242324Z 28012KT 16/M09 A3003 RMK A01 T01601090  RH  017%=      5-min Rain = 0
KFL1 242325Z 26010KT 16/M09 A3003 RMK A01 T01611090  RH  017%=      5-min Rain = 0
KFL1 242326Z 27009KT 16/M09 A3003 RMK A01 T01621094  RH  016%=      5-min Rain = 0
KFL1 242327Z 30013KT 16/M09 A3003 RMK A01 T01611089  RH  017%=      5-min Rain = 0
KFL1 242328Z 30016KT 16/M08 A3003 RMK A01 T01601082  RH  018%=      5-min Rain = 0
KFL1 242329Z 30017KT 16/M09 A3003 RMK A01 T01601086  RH  018%=      5-min Rain = 0
KFL1 242330Z 29017KT 16/M09 A3003 RMK A01 T01581088  RH  018%=      5-min Rain = 0
KFL1 242331Z 30013KT 16/M09 A3003 RMK A01 T01581093  RH  017%=      5-min Rain = 0
KFL1 242332Z 29010KT 16/M09 A3003 RMK A01 T01561088  RH  018%=      5-min Rain = 0
KFL1 242333Z 30010KT 16/M09 A3003 RMK A01 T01581085  RH  018%=      5-min Rain = 0
KFL1 242334Z 29011G17KT 16/M09 A3003 RMK A01 T01591085  RH  018%=      5-min Rain = 0
KFL1 242335Z 29015KT 16/M08 A3003 RMK A01 T01611076  RH  019%=      5-min Rain = 0
KFL1 242336Z 30014KT 16/M08 A3003 RMK A01 T01611082  RH  018%=      5-min Rain = 0
KFL1 242337Z 31011KT 16/M09 A3003 RMK A01 T01601085  RH  018%=      5-min Rain = 0
KFL1 242338Z 30015KT 16/M08 A3003 RMK A01 T01591080  RH  019%=      5-min Rain = 0
KFL1 242339Z 30011KT 16/M08 A3003 RMK A01 T01581080  RH  019%=      5-min Rain = 0
KFL1 242340Z 33009KT 16/M08 A3003 RMK A01 T01561083  RH  019%=      5-min Rain = 0
KFL1 242341Z 31008KT 16/M08 A3003 RMK A01 T01561081  RH  019%=      5-min Rain = 0
KFL1 242342Z 29010G15KT 16/M07 A3003 RMK A01 T01561071  RH  020%=      5-min Rain = 0
KFL1 242343Z 30015KT 16/M07 A3003 RMK A01 T01581070  RH  020%=      5-min Rain = 0
KFL1 242344Z 30014G20KT 16/M08 A3003 RMK A01 T01571078  RH  019%=      5-min Rain = 0
KFL1 242345Z 30014G19KT 16/M07 A3003 RMK A01 T01581068  RH  021%=      5-min Rain = 0
KFL1 242346Z 31020KT 16/M07 A3003 RMK A01 T01601072  RH  020%=      5-min Rain = 0
KFL1 242347Z 30015KT 16/M08 A3003 RMK A01 T01581078  RH  019%=      5-min Rain = 0
KFL1 242348Z 30015G20KT 16/M08 A3003 RMK A01 T01571076  RH  019%=      5-min Rain = 0
KFL1 242349Z 29017G22KT 16/M07 A3003 RMK A01 T01571074  RH  020%=      5-min Rain = 0
KFL1 242350Z 30014KT 16/M07 A3003 RMK A01 T01581073  RH  020%=      5-min Rain = 0
KFL1 242351Z 29015KT 16/M07 A3003 RMK A01 T01581072  RH  020%=      5-min Rain = 0
KFL1 242352Z 31013KT 16/M08 A3003 RMK A01 T01571075  RH  019%=      5-min Rain = 0
KFL1 242353Z 28016KT 16/M08 A3003 RMK A01 T01571077  RH  019%=      5-min Rain = 0
KFL1 242354Z 28014KT 16/M08 A3003 RMK A01 T01551078  RH  019%=      5-min Rain = 0
KFL1 242355Z 28014KT 16/M08 A3003 RMK A01 T01551075  RH  020%=      5-min Rain = 0
KFL1 242356Z 27016KT 16/M07 A3003 RMK A01 T01551072  RH  020%=      5-min Rain = 0
KFL1 242357Z 27014KT 16/M07 A3003 RMK A01 T01581073  RH  020%=      5-min Rain = 0
KFL1 242358Z 29015KT 16/M07 A3003 RMK A01 T01561072  RH  020%=      5-min Rain = 0
KFL1 242359Z 27014KT 16/M07 A3003 RMK A01 T01551071  RH  021%=      5-min Rain = 0
KFL1 250000Z 30011KT 15/M08 A3003 RMK A01 T01541078  RH  019%=      5-min Rain = 0
KFL1 250001Z 28013KT 15/M07 A3003 RMK A01 T01541071  RH  021%=      5-min Rain = 0
KFL1 250002Z 28013KT 15/M07 A3003 RMK A01 T01541071  RH  021%=      5-min Rain = 0
KFL1 250003Z 26014KT 15/M07 A3003 RMK A01 T01541066  RH  021%=      5-min Rain = 0
KFL1 250004Z 27014KT 15/M07 A3003 RMK A01 T01541069  RH  021%=      5-min Rain = 0
KFL1 250005Z 28015KT 15/M07 A3003 RMK A01 T01541070  RH  021%=      5-min Rain = 0
KFL1 250006Z 27013KT 15/M07 A3003 RMK A01 T01541073  RH  020%=      5-min Rain = 0
KFL1 250007Z 27013KT 15/M07 A3003 RMK A01 T01531071  RH  021%=      5-min Rain = 0
KFL1 250008Z 28011KT 15/M07 A3003 RMK A01 T01541067  RH  021%=      5-min Rain = 0
KFL1 250009Z 29015KT 16/M07 A3003 RMK A01 T01551069  RH  021%=      5-min Rain = 0
KFL1 250010Z 29011KT 16/M07 A3003 RMK A01 T01561067  RH  021%=      5-min Rain = 0
KFL1 250011Z 28011KT 16/M07 A3003 RMK A01 T01551069  RH  021%=      5-min Rain = 0
KFL1 250012Z 28008KT 16/M07 A3003 RMK A01 T01571069  RH  020%=      5-min Rain = 0
KFL1 250013Z 27010KT 16/M07 A3003 RMK A01 T01561069  RH  021%=      5-min Rain = 0
KFL1 250014Z 29010KT 15/M07 A3003 RMK A01 T01541069  RH  021%=      5-min Rain = 0
KFL1 250015Z 30011KT 16/M06 A3003 RMK A01 T01571064  RH  021%=      5-min Rain = 0
KFL1 250016Z 29011KT 16/M06 A3003 RMK A01 T01571063  RH  021%=      5-min Rain = 0
KFL1 250017Z 29013KT 16/M07 A3003 RMK A01 T01561068  RH  021%=      5-min Rain = 0
KFL1 250018Z 29015KT 15/M07 A3003 RMK A01 T01541073  RH  020%=      5-min Rain = 0
KFL1 250019Z 28014KT 15/M08 A3003 RMK A01 T01541077  RH  020%=      5-min Rain = 0
KFL1 250020Z 28012KT 15/M08 A3003 RMK A01 T01541076  RH  020%=      5-min Rain = 0
KFL1 250021Z 27010KT 15/M07 A3003 RMK A01 T01531071  RH  021%=      5-min Rain = 0
KFL1 250022Z 28010KT 15/M07 A3003 RMK A01 T01521073  RH  021%=      5-min Rain = 0
KFL1 250023Z 27014KT 15/M07 A3003 RMK A01 T01541070  RH  021%=      5-min Rain = 0
KFL1 250024Z 28014KT 15/M08 A3003 RMK A01 T01531077  RH  020%=      5-min Rain = 0
KFL1 250025Z 29014KT 15/M08 A3003 RMK A01 T01511076  RH  020%=      5-min Rain = 0
KFL1 250026Z 27011KT 15/M08 A3003 RMK A01 T01501075  RH  021%=      5-min Rain = 0
KFL1 250027Z 26011KT 15/M07 A3003 RMK A01 T01511072  RH  021%=      5-min Rain = 0
KFL1 250028Z 26012KT 15/M08 A3003 RMK A01 T01511079  RH  020%=      5-min Rain = 0
KFL1 250029Z 25013KT 15/M08 A3002 RMK A01 T01501075  RH  020%=      5-min Rain = 0
KFL1 250030Z 27012KT 15/M08 A3003 RMK A01 T01501075  RH  021%=      5-min Rain = 0
KFL1 250031Z 27016KT 15/M08 A3002 RMK A01 T01491079  RH  020%=      5-min Rain = 0
KFL1 250032Z 28014KT 15/M08 A3003 RMK A01 T01481081  RH  020%=      5-min Rain = 0
KFL1 250033Z 28012KT 15/M08 A3003 RMK A01 T01481080  RH  020%=      5-min Rain = 0
KFL1 250034Z 27011KT 15/M07 A3003 RMK A01 T01491073  RH  021%=      5-min Rain = 0
KFL1 250035Z 26012KT 15/M08 A3003 RMK A01 T01491075  RH  021%=      5-min Rain = 0
KFL1 250036Z 27013KT 15/M08 A3003 RMK A01 T01491078  RH  020%=      5-min Rain = 0
KFL1 250037Z 27010KT 15/M08 A3003 RMK A01 T01491080  RH  020%=      5-min Rain = 0
KFL1 250038Z 27010KT 15/M08 A3003 RMK A01 T01501078  RH  020%=      5-min Rain = 0
KFL1 250039Z 28013KT 15/M08 A3003 RMK A01 T01501079  RH  020%=      5-min Rain = 0
KFL1 250040Z 29013G18KT 15/M08 A3003 RMK A01 T01501076  RH  020%=      5-min Rain = 0
KFL1 250041Z 28017KT 15/M08 A3003 RMK A01 T01501079  RH  020%=      5-min Rain = 0
KFL1 250042Z 28015KT 15/M08 A3003 RMK A01 T01491083  RH  019%=      5-min Rain = 0
KFL1 250043Z 29013KT 15/M08 A3003 RMK A01 T01481082  RH  020%=      5-min Rain = 0
KFL1 250044Z 29009KT 15/M08 A3003 RMK A01 T01471079  RH  020%=      5-min Rain = 0
KFL1 250045Z 29010KT 15/M08 A3003 RMK A01 T01471079  RH  020%=      5-min Rain = 0
KFL1 250046Z 28010KT 15/M07 A3003 RMK A01 T01501074  RH  021%=      5-min Rain = 0
KFL1 250047Z 28010KT 15/M08 A3003 RMK A01 T01491075  RH  021%=      5-min Rain = 0
KFL1 250048Z 27010KT 15/M08 A3003 RMK A01 T01491080  RH  020%=      5-min Rain = 0
KFL1 250049Z 26011G18KT 15/M08 A3003 RMK A01 T01501076  RH  020%=      5-min Rain = 0
KFL1 250050Z 26017KT 15/M08 A3003 RMK A01 T01481083  RH  019%=      5-min Rain = 0
KFL1 250051Z 26015G20KT 15/M09 A3003 RMK A01 T01481085  RH  019%=      5-min Rain = 0
KFL1 250052Z 29011KT 15/M09 A3003 RMK A01 T01451089  RH  019%=      5-min Rain = 0
KFL1 250053Z 30011KT 15/M08 A3003 RMK A01 T01451083  RH  020%=      5-min Rain = 0
KFL1 250054Z 30009KT 15/M08 A3003 RMK A01 T01461082  RH  020%=      5-min Rain = 0
KFL1 250055Z 28015KT 15/M08 A3003 RMK A01 T01471082  RH  020%=      5-min Rain = 0
KFL1 250056Z 29013G18KT 15/M09 A3003 RMK A01 T01451087  RH  019%=      5-min Rain = 0
KFL1 250057Z 30014KT 15/M09 A3003 RMK A01 T01451086  RH  019%=      5-min Rain = 0
KFL1 250058Z 30013KT 14/M09 A3003 RMK A01 T01431088  RH  019%=      5-min Rain = 0
KFL1 250059Z 30012KT 14/M09 A3003 RMK A01 T01431085  RH  020%=      5-min Rain = 0
KFL1 250100Z 29011KT 14/M08 A3003 RMK A01 T01441084  RH  020%=      5-min Rain = 0
KFL1 250101Z 29012KT 14/M09 A3003 RMK A01 T01441085  RH  020%=      5-min Rain = 0
KFL1 250102Z 29010KT 14/M09 A3003 RMK A01 T01441086  RH  020%=      5-min Rain = 0
KFL1 250103Z 29012KT 14/M08 A3003 RMK A01 T01441084  RH  020%=      5-min Rain = 0
KFL1 250104Z 29013KT 14/M08 A3003 RMK A01 T01431083  RH  020%=      5-min Rain = 0
KFL1 250105Z 29012KT 14/M09 A3003 RMK A01 T01421086  RH  020%=      5-min Rain = 0
KFL1 250106Z 28014KT 14/M08 A3003 RMK A01 T01431082  RH  020%=      5-min Rain = 0
KFL1 250107Z 29016KT 14/M09 A3003 RMK A01 T01431086  RH  020%=      5-min Rain = 0
KFL1 250108Z 30014KT 14/M09 A3003 RMK A01 T01421085  RH  020%=      5-min Rain = 0
KFL1 250109Z 30013G18KT 14/M08 A3003 RMK A01 T01411082  RH  021%=      5-min Rain = 0
KFL1 250110Z 31014KT 14/M09 A3003 RMK A01 T01401087  RH  020%=      5-min Rain = 0
KFL1 250111Z 30011KT 14/M09 A3003 RMK A01 T01401088  RH  020%=      5-min Rain = 0
KFL1 250112Z 27012G17KT 14/M09 A3003 RMK A01 T01401085  RH  020%=      5-min Rain = 0
KFL1 250113Z 28014KT 14/M09 A3003 RMK A01 T01401088  RH  020%=      5-min Rain = 0
KFL1 250114Z 28013G19KT 14/M09 A3003 RMK A01 T01411089  RH  019%=      5-min Rain = 0
KFL1 250115Z 28015G20KT 14/M09 A3003 RMK A01 T01411088  RH  020%=      5-min Rain = 0
KFL1 250116Z 28013G18KT 14/M09 A3003 RMK A01 T01401089  RH  020%=      5-min Rain = 0
KFL1 250117Z 28013KT 14/M09 A3003 RMK A01 T01381090  RH  020%=      5-min Rain = 0
KFL1 250118Z 27013KT 14/M09 A3003 RMK A01 T01381088  RH  020%=      5-min Rain = 0
KFL1 250119Z 27012G17KT 14/M09 A3003 RMK A01 T01381090  RH  020%=      5-min Rain = 0
KFL1 250120Z 27012KT 14/M09 A3003 RMK A01 T01381092  RH  019%=      5-min Rain = 0
KFL1 250121Z 28013KT 14/M09 A3003 RMK A01 T01371093  RH  019%=      5-min Rain = 0
KFL1 250122Z 29010KT 14/M09 A3003 RMK A01 T01371092  RH  020%=      5-min Rain = 0
KFL1 250123Z 29011KT 14/M09 A3003 RMK A01 T01391086  RH  020%=      5-min Rain = 0
KFL1 250124Z 28011KT 14/M09 A3003 RMK A01 T01371086  RH  020%=      5-min Rain = 0
KFL1 250125Z 29011KT 14/M09 A3003 RMK A01 T01371087  RH  020%=      5-min Rain = 0
KFL1 250126Z 29010G15KT 14/M09 A3003 RMK A01 T01371088  RH  020%=      5-min Rain = 0
KFL1 250127Z 29012KT 14/M09 A3003 RMK A01 T01371086  RH  020%=      5-min Rain = 0
KFL1 250128Z 30011KT 14/M09 A3003 RMK A01 T01361086  RH  021%=      5-min Rain = 0
KFL1 250129Z 30010KT 14/M08 A3003 RMK A01 T01351082  RH  021%=      5-min Rain = 0
KFL1 250130Z 28007KT 13/M08 A3003 RMK A01 T01341080  RH  022%=      5-min Rain = 0
KFL1 250131Z 29010KT 13/M08 A3003 RMK A01 T01331082  RH  022%=      5-min Rain = 0
KFL1 250132Z 29014KT 13/M09 A3003 RMK A01 T01331088  RH  021%=      5-min Rain = 0
KFL1 250133Z 29012KT 13/M09 A3003 RMK A01 T01321093  RH  020%=      5-min Rain = 0
KFL1 250134Z 27010KT 13/M09 A3003 RMK A01 T01321091  RH  020%=      5-min Rain = 0
KFL1 250135Z 28009KT 13/M09 A3003 RMK A01 T01331087  RH  021%=      5-min Rain = 0
KFL1 250136Z 28011KT 13/M09 A3003 RMK A01 T01321089  RH  021%=      5-min Rain = 0
KFL1 250137Z 28012KT 13/M09 A3003 RMK A01 T01311089  RH  021%=      5-min Rain = 0
KFL1 250138Z 29011KT 13/M09 A3004 RMK A01 T01311087  RH  021%=      5-min Rain = 0
KFL1 250139Z 29010KT 13/M09 A3004 RMK A01 T01301086  RH  021%=      5-min Rain = 0
KFL1 250140Z 29009KT 13/M08 A3004 RMK A01 T01291084  RH  022%=      5-min Rain = 0
KFL1 250141Z 30011KT 13/M08 A3004 RMK A01 T01291084  RH  022%=      5-min Rain = 0
KFL1 250142Z 30013KT 13/M08 A3004 RMK A01 T01291079  RH  023%=      5-min Rain = 0
KFL1 250143Z 30011KT 13/M08 A3004 RMK A01 T01281080  RH  023%=      5-min Rain = 0
KFL1 250144Z 30010KT 13/M08 A3004 RMK A01 T01261081  RH  023%=      5-min Rain = 0
KFL1 250145Z 31009KT 13/M08 A3004 RMK A01 T01261079  RH  023%=      5-min Rain = 0
KFL1 250146Z 31009KT 13/M08 A3004 RMK A01 T01251076  RH  024%=      5-min Rain = 0
KFL1 250147Z 30009KT 12/M08 A3004 RMK A01 T01241079  RH  024%=      5-min Rain = 0
KFL1 250148Z 31010KT 13/M08 A3004 RMK A01 T01251076  RH  024%=      5-min Rain = 0
KFL1 250149Z 31009KT 12/M08 A3004 RMK A01 T01241076  RH  024%=      5-min Rain = 0
KFL1 250150Z 31012KT 12/M08 A3004 RMK A01 T01231079  RH  024%=      5-min Rain = 0
KFL1 250151Z 30011KT 12/M08 A3004 RMK A01 T01231080  RH  023%=      5-min Rain = 0
KFL1 250152Z 30009KT 12/M08 A3004 RMK A01 T01221081  RH  023%=      5-min Rain = 0
KFL1 250153Z 30007KT 12/M08 A3004 RMK A01 T01231079  RH  024%=      5-min Rain = 0
KFL1 250154Z 31008KT 12/M08 A3004 RMK A01 T01231077  RH  024%=      5-min Rain = 0
KFL1 250155Z 31008KT 12/M08 A3004 RMK A01 T01221078  RH  024%=      5-min Rain = 0
KFL1 250156Z 31007KT 12/M08 A3004 RMK A01 T01211078  RH  024%=      5-min Rain = 0
KFL1 250157Z 31006KT 12/M08 A3004 RMK A01 T01211079  RH  024%=      5-min Rain = 0
KFL1 250158Z 30006KT 12/M08 A3004 RMK A01 T01191078  RH  024%=      5-min Rain = 0
KFL1 250159Z 30006KT 12/M08 A3004 RMK A01 T01191076  RH  025%=      5-min Rain = 0
KFL1 250200Z 30007KT 12/M08 A3004 RMK A01 T01171075  RH  025%=      5-min Rain = 0
KFL1 250201Z 30007KT 12/M07 A3004 RMK A01 T01151074  RH  026%=      5-min Rain = 0
KFL1 250202Z 30006KT 11/M08 A3004 RMK A01 T01141076  RH  026%=      5-min Rain = 0
KFL1 250203Z 31007KT 11/M08 A3005 RMK A01 T01141076  RH  026%=      5-min Rain = 0
KFL1 250204Z 30008KT 11/M08 A3005 RMK A01 T01141077  RH  026%=      5-min Rain = 0
KFL1 250205Z 30008KT 11/M08 A3005 RMK A01 T01141075  RH  026%=      5-min Rain = 0
KFL1 250206Z 31009KT 11/M08 A3005 RMK A01 T01141079  RH  025%=      5-min Rain = 0
KFL1 250207Z 31009KT 11/M08 A3005 RMK A01 T01131082  RH  025%=      5-min Rain = 0
KFL1 250208Z 30008KT 11/M08 A3005 RMK A01 T01141080  RH  025%=      5-min Rain = 0
KFL1 250209Z 30009KT 11/M08 A3005 RMK A01 T01131083  RH  025%=      5-min Rain = 0
KFL1 250210Z 31009KT 11/M08 A3005 RMK A01 T01131083  RH  024%=      5-min Rain = 0
KFL1 250211Z 31010KT 12/M08 A3005 RMK A01 T01151081  RH  024%=      5-min Rain = 0
KFL1 250212Z 31008KT 11/M08 A3005 RMK A01 T01141082  RH  025%=      5-min Rain = 0
KFL1 250213Z 31008KT 11/M08 A3005 RMK A01 T01121083  RH  025%=      5-min Rain = 0
KFL1 250214Z 31007KT 11/M08 A3005 RMK A01 T01131082  RH  025%=      5-min Rain = 0
KFL1 250215Z 31009KT 11/M08 A3005 RMK A01 T01121084  RH  024%=      5-min Rain = 0
KFL1 250216Z 31010KT 11/M09 A3005 RMK A01 T01111085  RH  025%=      5-min Rain = 0
KFL1 250217Z 30009KT 11/M09 A3005 RMK A01 T01101087  RH  024%=      5-min Rain = 0
KFL1 250218Z 31008KT 11/M09 A3005 RMK A01 T01101088  RH  024%=      5-min Rain = 0
KFL1 250219Z 31007KT 11/M09 A3005 RMK A01 T01121085  RH  024%=      5-min Rain = 0
KFL1 250220Z 30008KT 11/M08 A3005 RMK A01 T01121084  RH  024%=      5-min Rain = 0
KFL1 250221Z 31006KT 11/M09 A3005 RMK A01 T01101085  RH  025%=      5-min Rain = 0
KFL1 250222Z 31007KT 11/M08 A3005 RMK A01 T01101083  RH  025%=      5-min Rain = 0
KFL1 250223Z 30008KT 11/M08 A3005 RMK A01 T01071084  RH  025%=      5-min Rain = 0
KFL1 250224Z 30009KT 11/M09 A3005 RMK A01 T01051085  RH  026%=      5-min Rain = 0
KFL1 250225Z 30008KT 11/M09 A3005 RMK A01 T01051087  RH  025%=      5-min Rain = 0
KFL1 250226Z 30009KT 11/M09 A3005 RMK A01 T01051085  RH  025%=      5-min Rain = 0
KFL1 250227Z 30009KT 10/M09 A3005 RMK A01 T01041087  RH  025%=      5-min Rain = 0
KFL1 250228Z 30010KT 11/M09 A3005 RMK A01 T01051089  RH  025%=      5-min Rain = 0
KFL1 250229Z 31009KT 11/M09 A3005 RMK A01 T01061089  RH  024%=      5-min Rain = 0
KFL1 250230Z 31009KT 11/M09 A3005 RMK A01 T01081088  RH  024%=      5-min Rain = 0
KFL1 250231Z 31008KT 11/M09 A3005 RMK A01 T01061089  RH  024%=      5-min Rain = 0
KFL1 250232Z 30010KT 11/M09 A3005 RMK A01 T01061089  RH  025%=      5-min Rain = 0
KFL1 250233Z 30007KT 11/M09 A3005 RMK A01 T01051089  RH  025%=      5-min Rain = 0
KFL1 250234Z 30007KT 10/M09 A3006 RMK A01 T01041087  RH  025%=      5-min Rain = 0
KFL1 250235Z 30008KT 10/M09 A3005 RMK A01 T01021088  RH  025%=      5-min Rain = 0
KFL1 250236Z 30010KT 10/M09 A3006 RMK A01 T01001087  RH  026%=      5-min Rain = 0
KFL1 250237Z 31009KT 10/M09 A3006 RMK A01 T00981088  RH  026%=      5-min Rain = 0
KFL1 250238Z 30009KT 10/M09 A3006 RMK A01 T00981088  RH  026%=      5-min Rain = 0
KFL1 250239Z 30009KT 10/M09 A3006 RMK A01 T00991087  RH  026%=      5-min Rain = 0
KFL1 250240Z 30009KT 10/M09 A3006 RMK A01 T00991089  RH  026%=      5-min Rain = 0
KFL1 250241Z 30008KT 10/M09 A3006 RMK A01 T01001087  RH  026%=      5-min Rain = 0
KFL1 250242Z 30009KT 10/M09 A3006 RMK A01 T00991089  RH  026%=      5-min Rain = 0
KFL1 250243Z 30008KT 10/M09 A3006 RMK A01 T00981090  RH  026%=      5-min Rain = 0
KFL1 250244Z 30009KT 10/M09 A3006 RMK A01 T00981090  RH  026%=      5-min Rain = 0
KFL1 250245Z 30010KT 10/M09 A3006 RMK A01 T00991092  RH  025%=      5-min Rain = 0
KFL1 250246Z 30011KT 10/M09 A3006 RMK A01 T01011091  RH  025%=      5-min Rain = 0
KFL1 250247Z 30010KT 10/M09 A3006 RMK A01 T01001093  RH  025%=      5-min Rain = 0
KFL1 250248Z 30008KT 10/M09 A3006 RMK A01 T01021090  RH  025%=      5-min Rain = 0
KFL1 250249Z 30008KT 10/M09 A3006 RMK A01 T01001092  RH  025%=      5-min Rain = 0
KFL1 250250Z 30009KT 10/M09 A3006 RMK A01 T00981093  RH  025%=      5-min Rain = 0
KFL1 250251Z 31013KT 10/M09 A3006 RMK A01 T00971093  RH  025%=      5-min Rain = 0
KFL1 250252Z 31011KT 10/M10 A3006 RMK A01 T00961095  RH  025%=      5-min Rain = 0
KFL1 250253Z 31010KT 10/M10 A3006 RMK A01 T00961095  RH  025%=      5-min Rain = 0
KFL1 250254Z 30011KT 10/M09 A3006 RMK A01 T00971094  RH  025%=      5-min Rain = 0
KFL1 250255Z 30011KT 10/M09 A3006 RMK A01 T00971094  RH  025%=      5-min Rain = 0
KFL1 250256Z 29012KT 10/M09 A3006 RMK A01 T00971094  RH  025%=      5-min Rain = 0
KFL1 250257Z 30012KT 10/M09 A3006 RMK A01 T00981094  RH  025%=      5-min Rain = 0
KFL1 250258Z 30012KT 10/M10 A3006 RMK A01 T01001095  RH  024%=      5-min Rain = 0
KFL1 250259Z 31011KT 10/M10 A3006 RMK A01 T01011095  RH  024%=      5-min Rain = 0
KFL1 250300Z 30010KT 10/M09 A3006 RMK A01 T01021094  RH  024%=      5-min Rain = 0
KFL1 250301Z 29012KT 10/M09 A3006 RMK A01 T01011093  RH  024%=      5-min Rain = 0
KFL1 250302Z 30015KT 10/M09 A3006 RMK A01 T01011093  RH  025%=      5-min Rain = 0
KFL1 250303Z 30014KT 10/M09 A3006 RMK A01 T01031090  RH  025%=      5-min Rain = 0
KFL1 250304Z 30013KT 10/M09 A3006 RMK A01 T01041088  RH  025%=      5-min Rain = 0
KFL1 250305Z 30013KT 11/M09 A3006 RMK A01 T01051090  RH  025%=      5-min Rain = 0
KFL1 250306Z 31013KT 11/M09 A3006 RMK A01 T01061089  RH  025%=      5-min Rain = 0
KFL1 250307Z 30012KT 11/M09 A3006 RMK A01 T01051086  RH  025%=      5-min Rain = 0
KFL1 250308Z 30011KT 10/M09 A3006 RMK A01 T01021087  RH  025%=      5-min Rain = 0
KFL1 250309Z 31010KT 10/M09 A3006 RMK A01 T01031085  RH  026%=      5-min Rain = 0
KFL1 250310Z 31009KT 10/M09 A3006 RMK A01 T01011086  RH  026%=      5-min Rain = 0
KFL1 250311Z 31009KT 10/M09 A3006 RMK A01 T01001085  RH  026%=      5-min Rain = 0
KFL1 250312Z 30010KT 10/M08 A3006 RMK A01 T01011084  RH  026%=      5-min Rain = 0
KFL1 250313Z 31011KT 10/M08 A3006 RMK A01 T01021081  RH  027%=      5-min Rain = 0
KFL1 250314Z 31009KT 10/M08 A3006 RMK A01 T01021082  RH  027%=      5-min Rain = 0
KFL1 250315Z 30011KT 10/M08 A3006 RMK A01 T01021082  RH  027%=      5-min Rain = 0
KFL1 250316Z 31012KT 10/M08 A3006 RMK A01 T01021080  RH  027%=      5-min Rain = 0
KFL1 250317Z 31012KT 10/M08 A3006 RMK A01 T01021078  RH  027%=      5-min Rain = 0
KFL1 250318Z 31012KT 10/M08 A3006 RMK A01 T01001078  RH  028%=      5-min Rain = 0
KFL1 250319Z 31013KT 10/M08 A3006 RMK A01 T01011077  RH  028%=      5-min Rain = 0
KFL1 250320Z 31011KT 10/M08 A3006 RMK A01 T01001076  RH  028%=      5-min Rain = 0
KFL1 250321Z 31012KT 10/M08 A3006 RMK A01 T01001076  RH  028%=      5-min Rain = 0
KFL1 250322Z 32014KT 10/M08 A3006 RMK A01 T01021075  RH  028%=      5-min Rain = 0
KFL1 250323Z 31012KT 10/M07 A3006 RMK A01 T01041072  RH  028%=      5-min Rain = 0
KFL1 250324Z 32010KT 10/M07 A3006 RMK A01 T01031072  RH  028%=      5-min Rain = 0
KFL1 250325Z 32011KT 10/M07 A3006 RMK A01 T01031073  RH  028%=      5-min Rain = 0
KFL1 250326Z 31010KT 10/M07 A3006 RMK A01 T01011074  RH  028%=      5-min Rain = 0
KFL1 250327Z 31012KT 10/M07 A3006 RMK A01 T01011073  RH  029%=      5-min Rain = 0
KFL1 250328Z 31011KT 10/M07 A3006 RMK A01 T00991073  RH  029%=      5-min Rain = 0
KFL1 250329Z 31008KT 10/M07 A3006 RMK A01 T00981071  RH  030%=      5-min Rain = 0
KFL1 250330Z 31011KT 10/M07 A3006 RMK A01 T00981072  RH  030%=      5-min Rain = 0
KFL1 250331Z 31009KT 10/M07 A3006 RMK A01 T00991069  RH  030%=      5-min Rain = 0
KFL1 250332Z 31011KT 10/M07 A3006 RMK A01 T01001068  RH  030%=      5-min Rain = 0
KFL1 250333Z 31011KT 10/M07 A3006 RMK A01 T00981070  RH  030%=      5-min Rain = 0
KFL1 250334Z 31010KT 10/M07 A3006 RMK A01 T00991069  RH  030%=      5-min Rain = 0
KFL1 250335Z 31009KT 10/M07 A3006 RMK A01 T01001068  RH  030%=      5-min Rain = 0
KFL1 250336Z 31008KT 10/M07 A3006 RMK A01 T00991069  RH  030%=      5-min Rain = 0
KFL1 250337Z 32008KT 10/M07 A3006 RMK A01 T00991069  RH  030%=      5-min Rain = 0
KFL1 250338Z 31010KT 10/M07 A3006 RMK A01 T00991067  RH  030%=      5-min Rain = 0
KFL1 250339Z 31010KT 10/M07 A3006 RMK A01 T00991068  RH  030%=      5-min Rain = 0
KFL1 250340Z 31011KT 10/M07 A3006 RMK A01 T00991066  RH  031%=      5-min Rain = 0
KFL1 250341Z 31011KT 10/M07 A3006 RMK A01 T00981067  RH  031%=      5-min Rain = 0
KFL1 250342Z 31010KT 10/M07 A3006 RMK A01 T00991067  RH  030%=      5-min Rain = 0
KFL1 250343Z 31010KT 10/M07 A3006 RMK A01 T00991067  RH  031%=      5-min Rain = 0
KFL1 250344Z 31010KT 10/M07 A3006 RMK A01 T00981066  RH  031%=      5-min Rain = 0
KFL1 250345Z 31011KT 10/M07 A3006 RMK A01 T00981065  RH  031%=      5-min Rain = 0
KFL1 250346Z 31011KT 10/M07 A3006 RMK A01 T00971066  RH  031%=      5-min Rain = 0
KFL1 250347Z 31011KT 10/M07 A3006 RMK A01 T00981065  RH  031%=      5-min Rain = 0
KFL1 250348Z 31012KT 10/M07 A3006 RMK A01 T00981066  RH  031%=      5-min Rain = 0
KFL1 250349Z 30012KT 10/M07 A3006 RMK A01 T00981065  RH  031%=      5-min Rain = 0
KFL1 250350Z 31010KT 10/M07 A3006 RMK A01 T00991065  RH  031%=      5-min Rain = 0
KFL1 250351Z 31011KT 10/M07 A3006 RMK A01 T00991066  RH  031%=      5-min Rain = 0
KFL1 250352Z 31012KT 10/M07 A3006 RMK A01 T00991065  RH  031%=      5-min Rain = 0
KFL1 250353Z 31011KT 10/M06 A3006 RMK A01 T01011064  RH  031%=      5-min Rain = 0
KFL1 250354Z 31012KT 10/M07 A3006 RMK A01 T01001065  RH  031%=      5-min Rain = 0
KFL1 250355Z 30010KT 10/M07 A3006 RMK A01 T01011065  RH  030%=      5-min Rain = 0
KFL1 250356Z 30012KT 10/M07 A3006 RMK A01 T01011065  RH  031%=      5-min Rain = 0
KFL1 250357Z 31011KT 10/M07 A3006 RMK A01 T01001065  RH  031%=      5-min Rain = 0
KFL1 250358Z 30010KT 10/M07 A3006 RMK A01 T00981067  RH  031%=      5-min Rain = 0
KFL1 250359Z 31011KT 10/M07 A3006 RMK A01 T00981066  RH  031%=      5-min Rain = 0
KFL1 250400Z 30011KT 10/M07 A3006 RMK A01 T00991065  RH  031%=      5-min Rain = 0
KFL1 250401Z 31010KT 10/M07 A3006 RMK A01 T00991065  RH  031%=      5-min Rain = 0
KFL1 250402Z 30010KT 10/M07 A3006 RMK A01 T00981066  RH  031%=      5-min Rain = 0
KFL1 250403Z 31010KT 10/M07 A3006 RMK A01 T00971066  RH  031%=      5-min Rain = 0
KFL1 250404Z 31010KT 10/M07 A3006 RMK A01 T00961067  RH  031%=      5-min Rain = 0
KFL1 250405Z 31009KT 10/M07 A3006 RMK A01 T00971067  RH  031%=      5-min Rain = 0
KFL1 250406Z 31011KT 10/M07 A3006 RMK A01 T00981065  RH  031%=      5-min Rain = 0
KFL1 250407Z 31010KT 10/M07 A3006 RMK A01 T00971066  RH  031%=      5-min Rain = 0
KFL1 250408Z 31012KT 10/M07 A3006 RMK A01 T00961066  RH  031%=      5-min Rain = 0
KFL1 250409Z 31011KT 10/M07 A3006 RMK A01 T00961065  RH  031%=      5-min Rain = 0
KFL1 250410Z 31010KT 10/M07 A3006 RMK A01 T00961066  RH  031%=      5-min Rain = 0
KFL1 250411Z 30010KT 10/M07 A3006 RMK A01 T00951066  RH  031%=      5-min Rain = 0
KFL1 250412Z 31008KT 10/M07 A3006 RMK A01 T00951066  RH  031%=      5-min Rain = 0
KFL1 250413Z 31009KT 10/M07 A3006 RMK A01 T00961065  RH  032%=      5-min Rain = 0
KFL1 250414Z 31007KT 09/M07 A3006 RMK A01 T00941067  RH  031%=      5-min Rain = 0
KFL1 250415Z 31007KT 09/M07 A3007 RMK A01 T00931067  RH  032%=      5-min Rain = 0
KFL1 250416Z 31007KT 09/M07 A3007 RMK A01 T00931065  RH  032%=      5-min Rain = 0
KFL1 250417Z 31007KT 09/M07 A3007 RMK A01 T00911067  RH  032%=      5-min Rain = 0
KFL1 250418Z 33006KT 09/M07 A3007 RMK A01 T00901067  RH  032%=      5-min Rain = 0
KFL1 250419Z 34006KT 09/M07 A3007 RMK A01 T00881066  RH  033%=      5-min Rain = 0
KFL1 250420Z 34006KT 09/M07 A3007 RMK A01 T00851067  RH  033%=      5-min Rain = 0
KFL1 250421Z 00006KT 08/M06 A3007 RMK A01 T00841064  RH  034%=      5-min Rain = 0
KFL1 250422Z 03005KT 08/M06 A3007 RMK A01 T00821060  RH  036%=      5-min Rain = 0
KFL1 250423Z 04005KT 08/M06 A3007 RMK A01 T00791062  RH  036%=      5-min Rain = 0
KFL1 250424Z 04004KT 08/M06 A3007 RMK A01 T00791064  RH  036%=      5-min Rain = 0
KFL1 250425Z 05004KT 08/M06 A3007 RMK A01 T00801064  RH  035%=      5-min Rain = 0
KFL1 250426Z 04004KT 08/M06 A3007 RMK A01 T00821063  RH  035%=      5-min Rain = 0
KFL1 250427Z 05003KT 08/M06 A3007 RMK A01 T00821064  RH  035%=      5-min Rain = 0
KFL1 250428Z 05003KT 08/M06 A3007 RMK A01 T00821064  RH  035%=      5-min Rain = 0
KFL1 250429Z 05003KT 08/M06 A3007 RMK A01 T00821064  RH  035%=      5-min Rain = 0
KFL1 250430Z 06004KT 08/M06 A3007 RMK A01 T00821064  RH  035%=      5-min Rain = 0
KFL1 250431Z 05004KT 08/M06 A3007 RMK A01 T00811064  RH  035%=      5-min Rain = 0
KFL1 250432Z 05005KT 08/M06 A3007 RMK A01 T00801064  RH  035%=      5-min Rain = 0
KFL1 250433Z 05005KT 08/M06 A3007 RMK A01 T00791064  RH  036%=      5-min Rain = 0
KFL1 250434Z 05005KT 08/M06 A3007 RMK A01 T00791063  RH  036%=      5-min Rain = 0
KFL1 250435Z 06004KT 08/M06 A3007 RMK A01 T00801062  RH  036%=      5-min Rain = 0
KFL1 250436Z 05003KT 08/M06 A3007 RMK A01 T00791062  RH  036%=      5-min Rain = 0
KFL1 250437Z 05004KT 08/M06 A3007 RMK A01 T00781063  RH  036%=      5-min Rain = 0
KFL1 250438Z 04003KT 08/M06 A3007 RMK A01 T00771064  RH  036%=      5-min Rain = 0
KFL1 250439Z 01003KT 08/M06 A3007 RMK A01 T00781064  RH  036%=      5-min Rain = 0
KFL1 250440Z 02003KT 08/M06 A3007 RMK A01 T00791064  RH  036%=      5-min Rain = 0
KFL1 250441Z 03004KT 08/M07 A3007 RMK A01 T00781065  RH  035%=      5-min Rain = 0
KFL1 250442Z 04003KT 08/M07 A3007 RMK A01 T00801067  RH  035%=      5-min Rain = 0
KFL1 250443Z 03004KT 08/M07 A3007 RMK A01 T00821066  RH  034%=      5-min Rain = 0
KFL1 250444Z 02003KT 08/M07 A3007 RMK A01 T00821066  RH  035%=      5-min Rain = 0
KFL1 250445Z 01003KT 08/M06 A3007 RMK A01 T00811063  RH  035%=      5-min Rain = 0
KFL1 250446Z 04003KT 08/M06 A3007 RMK A01 T00771063  RH  036%=      5-min Rain = 0
KFL1 250447Z 05004KT 08/M06 A3007 RMK A01 T00751057  RH  039%=      5-min Rain = 0
KFL1 250448Z 05003KT 07/M06 A3007 RMK A01 T00691058  RH  040%=      5-min Rain = 0
KFL1 250449Z 07005KT 07/M06 A3007 RMK A01 T00661059  RH  040%=      5-min Rain = 0
KFL1 250450Z 05004KT 07/M06 A3007 RMK A01 T00661060  RH  040%=      5-min Rain = 0
KFL1 250451Z 02002KT 07/M07 A3007 RMK A01 T00651065  RH  039%=      5-min Rain = 0
KFL1 250452Z 34001KT 07/M07 A3007 RMK A01 T00681065  RH  038%=      5-min Rain = 0
KFL1 250453Z 32003KT 07/M06 A3007 RMK A01 T00671061  RH  039%=      5-min Rain = 0
KFL1 250454Z 31004KT 06/M06 A3007 RMK A01 T00611058  RH  042%=      5-min Rain = 0
KFL1 250455Z 30005KT 06/M06 A3007 RMK A01 T00551057  RH  044%=      5-min Rain = 0
KFL1 250456Z 29005KT 05/M06 A3007 RMK A01 T00511058  RH  045%=      5-min Rain = 0
KFL1 250457Z 29005KT 05/M06 A3007 RMK A01 T00501058  RH  046%=      5-min Rain = 0
KFL1 250458Z 30004KT 05/M06 A3007 RMK A01 T00501060  RH  045%=      5-min Rain = 0
KFL1 250459Z 29002KT 05/M06 A3007 RMK A01 T00531061  RH  043%=      5-min Rain = 0

Page generated in 0.148 seconds.